Wetterdaten: Donnerstag, 04.07.2019
Datum Zeit Temp. Aussen Temp. o. S. +5cm Feuchte Auss Luftdruck Regen Sonnenschein Regendauer Solar Windben Empfang
04.07.2019 00:00 15,5 C 13,9 C 13,9 C 67 % 1025,7 hPa 0,0 l/m 0 min 0 min 0 W/m 3,2 km/h (1 Bft) 100,00 %
04.07.2019 00:02 15,5 C 13,9 C 13,9 C 67 % 1025,7 hPa 0,0 l/m 0 min 0 min 0 W/m 9,7 km/h (2 Bft) 92,11 %
04.07.2019 00:04 15,4 C 13,9 C 13,9 C 67 % 1025,8 hPa 0,0 l/m 0 min 0 min 0 W/m 6,4 km/h (2 Bft) 100,00 %
04.07.2019 00:08 15,4 C 13,9 C 13,9 C 68 % 1025,7 hPa 0,0 l/m 0 min 0 min 0 W/m 6,4 km/h (2 Bft) 99,01 %
04.07.2019 00:10 15,4 C 13,9 C 13,9 C 68 % 1025,7 hPa 0,0 l/m 0 min 0 min 0 W/m 6,4 km/h (2 Bft) 100,00 %
04.07.2019 00:12 15,3 C 13,9 C 13,9 C 68 % 1025,7 hPa 0,0 l/m 0 min 0 min 0 W/m 6,4 km/h (2 Bft) 97,87 %
04.07.2019 00:14 15,3 C 13,9 C 13,9 C 68 % 1025,7 hPa 0,0 l/m 0 min 0 min 0 W/m 3,2 km/h (1 Bft) 100,00 %
04.07.2019 00:16 15,3 C 13,9 C 13,9 C 68 % 1025,7 hPa 0,0 l/m 0 min 0 min 0 W/m 3,2 km/h (1 Bft) 100,00 %
04.07.2019 00:18 15,3 C 13,9 C 13,9 C 68 % 1025,6 hPa 0,0 l/m 0 min 0 min 0 W/m 3,2 km/h (1 Bft) 100,00 %
04.07.2019 00:20 15,3 C 13,9 C 13,3 C 68 % 1025,7 hPa 0,0 l/m 0 min 0 min 0 W/m 6,4 km/h (2 Bft) 100,00 %
04.07.2019 00:22 15,2 C 13,9 C 13,3 C 68 % 1025,7 hPa 0,0 l/m 0 min 0 min 0 W/m 6,4 km/h (2 Bft) 97,96 %
04.07.2019 00:24 15,2 C 13,9 C 13,3 C 68 % 1025,7 hPa 0,0 l/m 0 min 0 min 0 W/m 9,7 km/h (2 Bft) 100,00 %
04.07.2019 00:26 15,2 C 13,9 C 13,3 C 69 % 1025,7 hPa 0,0 l/m 0 min 0 min 0 W/m 9,7 km/h (2 Bft) 97,87 %
04.07.2019 00:28 15,1 C 13,9 C 13,9 C 69 % 1025,6 hPa 0,0 l/m 0 min 0 min 0 W/m 6,4 km/h (2 Bft) 100,00 %
04.07.2019 00:30 15,1 C 13,9 C 13,9 C 69 % 1025,7 hPa 0,0 l/m 0 min 0 min 0 W/m 6,4 km/h (2 Bft) 100,00 %
04.07.2019 00:32 15,1 C 13,9 C 13,9 C 69 % 1025,6 hPa 0,0 l/m 0 min 0 min 0 W/m 6,4 km/h (2 Bft) 100,00 %
04.07.2019 00:34 15,0 C 13,9 C 13,9 C 69 % 1025,6 hPa 0,0 l/m 0 min 0 min 0 W/m 9,7 km/h (2 Bft) 100,00 %
04.07.2019 00:36 15,0 C 13,9 C 13,9 C 69 % 1025,6 hPa 0,0 l/m 0 min 0 min 0 W/m 12,9 km/h (3 Bft) 100,00 %
04.07.2019 00:38 14,9 C 13,9 C 13,9 C 69 % 1025,6 hPa 0,0 l/m 0 min 0 min 0 W/m 3,2 km/h (1 Bft) 100,00 %
04.07.2019 00:40 14,9 C 13,9 C 13,3 C 69 % 1025,7 hPa 0,0 l/m 0 min 0 min 0 W/m 6,4 km/h (2 Bft) 97,83 %
04.07.2019 00:42 14,9 C 13,9 C 13,3 C 69 % 1025,7 hPa 0,0 l/m 0 min 0 min 0 W/m 6,4 km/h (2 Bft) 97,87 %
04.07.2019 00:44 14,9 C 13,9 C 13,9 C 69 % 1025,7 hPa 0,0 l/m 0 min 0 min 0 W/m 9,7 km/h (2 Bft) 95,74 %
04.07.2019 00:46 14,9 C 13,9 C 13,3 C 69 % 1025,7 hPa 0,0 l/m 0 min 0 min 0 W/m 6,4 km/h (2 Bft) 97,87 %
04.07.2019 00:48 14,8 C 13,3 C 13,3 C 70 % 1025,6 hPa 0,0 l/m 0 min 0 min 0 W/m 6,4 km/h (2 Bft) 97,87 %
04.07.2019 00:50 14,8 C 13,3 C 13,3 C 70 % 1025,6 hPa 0,0 l/m 0 min 0 min 0 W/m 3,2 km/h (1 Bft) 97,83 %
04.07.2019 00:52 14,8 C 13,3 C 13,3 C 70 % 1025,6 hPa 0,0 l/m 0 min 0 min 0 W/m 9,7 km/h (2 Bft) 93,62 %
04.07.2019 00:54 14,8 C 13,3 C 13,3 C 70 % 1025,7 hPa 0,0 l/m 0 min 0 min 0 W/m 6,4 km/h (2 Bft) 95,74 %
04.07.2019 00:56 14,7 C 13,3 C 13,3 C 70 % 1025,7 hPa 0,0 l/m 0 min 0 min 0 W/m 6,4 km/h (2 Bft) 93,62 %
04.07.2019 00:58 14,7 C 13,3 C 13,3 C 70 % 1025,7 hPa 0,0 l/m 0 min 0 min 0 W/m 6,4 km/h (2 Bft) 97,87 %
04.07.2019 01:00 14,7 C 13,3 C 13,3 C 70 % 1025,7 hPa 0,0 l/m 0 min 0 min 0 W/m 6,4 km/h (2 Bft) 97,87 %
04.07.2019 01:02 14,7 C 13,3 C 12,8 C 70 % 1025,6 hPa 0,0 l/m 0 min 0 min 0 W/m 6,4 km/h (2 Bft) 95,65 %
04.07.2019 01:04 14,6 C 13,3 C 12,8 C 70 % 1025,7 hPa 0,0 l/m 0 min 0 min 0 W/m 12,9 km/h (3 Bft) 95,74 %
04.07.2019 01:06 14,6 C 13,3 C 13,3 C 70 % 1025,6 hPa 0,0 l/m 0 min 0 min 0 W/m 6,4 km/h (2 Bft) 95,74 %
04.07.2019 01:08 14,6 C 13,3 C 13,3 C 70 % 1025,6 hPa 0,0 l/m 0 min 0 min 0 W/m 6,4 km/h (2 Bft) 95,74 %
04.07.2019 01:10 14,5 C 13,3 C 13,3 C 70 % 1025,6 hPa 0,0 l/m 0 min 0 min 0 W/m 6,4 km/h (2 Bft) 93,62 %
04.07.2019 01:12 14,5 C 13,3 C 12,8 C 71 % 1025,6 hPa 0,0 l/m 0 min 0 min 0 W/m 6,4 km/h (2 Bft) 95,74 %
04.07.2019 01:14 14,4 C 12,8 C 12,8 C 71 % 1025,6 hPa 0,0 l/m 0 min 0 min 0 W/m 3,2 km/h (1 Bft) 93,48 %
04.07.2019 01:16 14,4 C 12,8 C 12,8 C 71 % 1025,6 hPa 0,0 l/m 0 min 0 min 0 W/m 3,2 km/h (1 Bft) 95,74 %
04.07.2019 01:18 14,4 C 12,8 C 12,8 C 71 % 1025,6 hPa 0,0 l/m 0 min 0 min 0 W/m 6,4 km/h (2 Bft) 95,74 %
04.07.2019 01:20 14,4 C 12,8 C 12,8 C 71 % 1025,5 hPa 0,0 l/m 0 min 0 min 0 W/m 6,4 km/h (2 Bft) 95,74 %
04.07.2019 01:22 14,3 C 12,8 C 12,8 C 71 % 1025,6 hPa 0,0 l/m 0 min 0 min 0 W/m 3,2 km/h (1 Bft) 97,87 %
04.07.2019 01:24 14,3 C 12,8 C 12,8 C 71 % 1025,6 hPa 0,0 l/m 0 min 0 min 0 W/m 6,4 km/h (2 Bft) 93,62 %
04.07.2019 01:26 14,2 C 12,8 C 12,8 C 71 % 1025,6 hPa 0,0 l/m 0 min 0 min 0 W/m 3,2 km/h (1 Bft) 95,65 %
04.07.2019 01:28 14,2 C 12,8 C 12,8 C 71 % 1025,6 hPa 0,0 l/m 0 min 0 min 0 W/m 6,4 km/h (2 Bft) 95,74 %
04.07.2019 01:30 14,2 C 12,8 C 12,8 C 71 % 1025,7 hPa 0,0 l/m 0 min 0 min 0 W/m 3,2 km/h (1 Bft) 95,74 %
04.07.2019 01:32 14,2 C 12,8 C 12,8 C 71 % 1025,6 hPa 0,0 l/m 0 min 0 min 0 W/m 6,4 km/h (2 Bft) 93,62 %
04.07.2019 01:34 14,2 C 12,8 C 12,8 C 71 % 1025,6 hPa 0,0 l/m 0 min 0 min 0 W/m 6,4 km/h (2 Bft) 95,74 %
04.07.2019 01:36 14,2 C 12,8 C 12,8 C 72 % 1025,6 hPa 0,0 l/m 0 min 0 min 0 W/m 6,4 km/h (2 Bft) 97,83 %
04.07.2019 01:38 14,2 C 12,8 C 12,2 C 72 % 1025,6 hPa 0,0 l/m 0 min 0 min 0 W/m 3,2 km/h (1 Bft) 95,74 %
04.07.2019 01:40 14,2 C 12,2 C 12,2 C 72 % 1025,6 hPa 0,0 l/m 0 min 0 min 0 W/m 3,2 km/h (1 Bft) 95,74 %
04.07.2019 01:42 14,2 C 12,2 C 12,2 C 72 % 1025,6 hPa 0,0 l/m 0 min 0 min 0 W/m 6,4 km/h (2 Bft) 95,74 %
04.07.2019 01:44 14,1 C 12,2 C 12,2 C 72 % 1025,6 hPa 0,0 l/m 0 min 0 min 0 W/m 3,2 km/h (1 Bft) 97,87 %
04.07.2019 01:46 14,1 C 12,2 C 12,2 C 72 % 1025,6 hPa 0,0 l/m 0 min 0 min 0 W/m 6,4 km/h (2 Bft) 97,87 %
04.07.2019 01:48 14,0 C 12,2 C 12,2 C 72 % 1025,6 hPa 0,0 l/m 0 min 0 min 0 W/m 3,2 km/h (1 Bft) 100,00 %
04.07.2019 01:50 13,9 C 12,2 C 12,2 C 72 % 1025,7 hPa 0,0 l/m 0 min 0 min 0 W/m 3,2 km/h (1 Bft) 97,83 %
04.07.2019 01:52 13,9 C 12,2 C 12,2 C 72 % 1025,6 hPa 0,0 l/m 0 min 0 min 0 W/m 3,2 km/h (1 Bft) 97,87 %
04.07.2019 01:54 13,9 C 12,2 C 12,2 C 72 % 1025,7 hPa 0,0 l/m 0 min 0 min 0 W/m 3,2 km/h (1 Bft) 100,00 %
04.07.2019 01:56 13,9 C 12,2 C 12,2 C 72 % 1025,7 hPa 0,0 l/m 0 min 0 min 0 W/m 6,4 km/h (2 Bft) 100,00 %
04.07.2019 01:58 13,8 C 12,2 C 12,2 C 72 % 1025,7 hPa 0,0 l/m 0 min 0 min 0 W/m 6,4 km/h (2 Bft) 100,00 %
04.07.2019 02:00 13,8 C 12,2 C 12,2 C 72 % 1025,6 hPa 0,0 l/m 0 min 0 min 0 W/m 3,2 km/h (1 Bft) 100,00 %
04.07.2019 02:02 13,8 C 12,2 C 12,2 C 72 % 1025,7 hPa 0,0 l/m 0 min 0 min 0 W/m 3,2 km/h (1 Bft) 100,00 %
04.07.2019 02:04 13,7 C 12,2 C 12,2 C 72 % 1025,7 hPa 0,0 l/m 0 min 0 min 0 W/m 6,4 km/h (2 Bft) 100,00 %
04.07.2019 02:06 13,7 C 12,2 C 12,2 C 73 % 1025,7 hPa 0,0 l/m 0 min 0 min 0 W/m 3,2 km/h (1 Bft) 100,00 %
04.07.2019 02:08 13,7 C 12,2 C 12,2 C 73 % 1025,7 hPa 0,0 l/m 0 min 0 min 0 W/m 6,4 km/h (2 Bft) 100,00 %
04.07.2019 02:10 13,6 C 12,2 C 12,2 C 73 % 1025,7 hPa 0,0 l/m 0 min 0 min 0 W/m 3,2 km/h (1 Bft) 100,00 %
04.07.2019 02:12 13,6 C 12,2 C 12,2 C 73 % 1025,7 hPa 0,0 l/m 0 min 0 min 0 W/m 3,2 km/h (1 Bft) 97,83 %
04.07.2019 02:14 13,6 C 12,2 C 12,2 C 73 % 1025,7 hPa 0,0 l/m 0 min 0 min 0 W/m 3,2 km/h (1 Bft) 97,87 %
04.07.2019 02:16 13,5 C 12,2 C 11,7 C 73 % 1025,7 hPa 0,0 l/m 0 min 0 min 0 W/m 3,2 km/h (1 Bft) 97,87 %
04.07.2019 02:18 13,5 C 11,7 C 11,7 C 73 % 1025,8 hPa 0,0 l/m 0 min 0 min 0 W/m 0,0 km/h (0 Bft) 100,00 %
04.07.2019 02:20 13,5 C 11,7 C 11,7 C 73 % 1025,7 hPa 0,0 l/m 0 min 0 min 0 W/m 3,2 km/h (1 Bft) 100,00 %
04.07.2019 02:22 13,4 C 11,7 C 11,7 C 73 % 1025,8 hPa 0,0 l/m 0 min 0 min 0 W/m 3,2 km/h (1 Bft) 100,00 %
04.07.2019 02:24 13,4 C 11,7 C 11,7 C 73 % 1025,8 hPa 0,0 l/m 0 min 0 min 0 W/m 3,2 km/h (1 Bft) 100,00 %
04.07.2019 02:26 13,4 C 11,7 C 11,7 C 73 % 1025,7 hPa 0,0 l/m 0 min 0 min 0 W/m 3,2 km/h (1 Bft) 100,00 %
04.07.2019 02:28 13,3 C 11,7 C 11,7 C 73 % 1025,7 hPa 0,0 l/m 0 min 0 min 0 W/m 0,0 km/h (0 Bft) 100,00 %
04.07.2019 02:30 13,3 C 11,7 C 11,7 C 73 % 1025,8 hPa 0,0 l/m 0 min 0 min 0 W/m 0,0 km/h (0 Bft) 100,00 %
04.07.2019 02:32 13,3 C 11,7 C 11,7 C 73 % 1025,8 hPa 0,0 l/m 0 min 0 min 0 W/m 0,0 km/h (0 Bft) 97,87 %
04.07.2019 02:34 13,3 C 11,7 C 11,1 C 73 % 1025,8 hPa 0,0 l/m 0 min 0 min 0 W/m 3,2 km/h (1 Bft) 97,83 %
04.07.2019 02:36 13,2 C 11,1 C 11,1 C 73 % 1025,8 hPa 0,0 l/m 0 min 0 min 0 W/m 0,0 km/h (0 Bft) 97,87 %
04.07.2019 02:38 13,2 C 11,1 C 11,1 C 73 % 1025,7 hPa 0,0 l/m 0 min 0 min 0 W/m 0,0 km/h (0 Bft) 100,00 %
04.07.2019 02:40 13,2 C 11,1 C 11,1 C 73 % 1025,7 hPa 0,0 l/m 0 min 0 min 0 W/m 0,0 km/h (0 Bft) 100,00 %
04.07.2019 02:42 13,2 C 11,1 C 11,1 C 73 % 1025,7 hPa 0,0 l/m 0 min 0 min 0 W/m 0,0 km/h (0 Bft) 100,00 %
04.07.2019 02:44 13,1 C 11,1 C 11,1 C 73 % 1025,7 hPa 0,0 l/m 0 min 0 min 0 W/m 0,0 km/h (0 Bft) 97,87 %
04.07.2019 02:46 13,1 C 11,1 C 11,1 C 73 % 1025,7 hPa 0,0 l/m 0 min 0 min 0 W/m 3,2 km/h (1 Bft) 97,87 %
04.07.2019 02:48 13,1 C 11,1 C 11,1 C 73 % 1025,7 hPa 0,0 l/m 0 min 0 min 0 W/m 0,0 km/h (0 Bft) 100,00 %
04.07.2019 02:50 13,1 C 11,1 C 11,1 C 73 % 1025,8 hPa 0,0 l/m 0 min 0 min 0 W/m 0,0 km/h (0 Bft) 100,00 %
04.07.2019 02:52 13,0 C 10,6 C 11,1 C 73 % 1025,8 hPa 0,0 l/m 0 min 0 min 0 W/m 0,0 km/h (0 Bft) 97,87 %
04.07.2019 02:54 13,0 C 10,6 C 10,6 C 73 % 1025,8 hPa 0,0 l/m 0 min 0 min 0 W/m 0,0 km/h (0 Bft) 100,00 %
04.07.2019 02:56 12,9 C 10,6 C 10,6 C 73 % 1025,7 hPa 0,0 l/m 0 min 0 min 0 W/m 0,0 km/h (0 Bft) 100,00 %
04.07.2019 02:58 12,9 C 10,6 C 10,6 C 73 % 1025,7 hPa 0,0 l/m 0 min 0 min 0 W/m 0,0 km/h (0 Bft) 100,00 %
04.07.2019 03:00 12,9 C 10,6 C 10,6 C 73 % 1025,7 hPa 0,0 l/m 0 min 0 min 0 W/m 0,0 km/h (0 Bft) 97,87 %
04.07.2019 03:02 12,8 C 10,6 C 10,6 C 73 % 1025,7 hPa 0,0 l/m 0 min 0 min 0 W/m 0,0 km/h (0 Bft) 93,48 %
04.07.2019 03:04 12,8 C 10,6 C 10,6 C 73 % 1025,7 hPa 0,0 l/m 0 min 0 min 0 W/m 0,0 km/h (0 Bft) 95,74 %
04.07.2019 03:06 12,8 C 10,6 C 10,6 C 73 % 1025,7 hPa 0,0 l/m 0 min 0 min 0 W/m 0,0 km/h (0 Bft) 97,87 %
04.07.2019 03:08 12,7 C 10,6 C 10,6 C 74 % 1025,7 hPa 0,0 l/m 0 min 0 min 0 W/m 0,0 km/h (0 Bft) 97,87 %
04.07.2019 03:10 12,7 C 10,6 C 10,6 C 74 % 1025,7 hPa 0,0 l/m 0 min 0 min 0 W/m 3,2 km/h (1 Bft) 97,87 %
04.07.2019 03:12 12,7 C 10,6 C 10,6 C 74 % 1025,7 hPa 0,0 l/m 0 min 0 min 0 W/m 0,0 km/h (0 Bft) 93,62 %
04.07.2019 03:14 12,6 C 10,6 C 10,6 C 74 % 1025,7 hPa 0,0 l/m 0 min 0 min 0 W/m 3,2 km/h (1 Bft) 97,83 %
04.07.2019 03:16 12,6 C 10,6 C 10,6 C 74 % 1025,7 hPa 0,0 l/m 0 min 0 min 0 W/m 3,2 km/h (1 Bft) 95,74 %
04.07.2019 03:18 12,6 C 10,6 C 10,6 C 74 % 1025,6 hPa 0,0 l/m 0 min 0 min 0 W/m 0,0 km/h (0 Bft) 95,74 %
04.07.2019 03:20 12,5 C 10,6 C 10,6 C 75 % 1025,7 hPa 0,0 l/m 0 min 0 min 0 W/m 3,2 km/h (1 Bft) 95,74 %
04.07.2019 03:22 12,4 C 10,6 C 10,6 C 75 % 1025,6 hPa 0,0 l/m 0 min 0 min 0 W/m 0,0 km/h (0 Bft) 95,74 %
04.07.2019 03:24 12,4 C 10,6 C 10,6 C 75 % 1025,6 hPa 0,0 l/m 0 min 0 min 0 W/m 0,0 km/h (0 Bft) 93,62 %
04.07.2019 03:26 12,4 C 10,6 C 10,6 C 75 % 1025,6 hPa 0,0 l/m 0 min 0 min 0 W/m 3,2 km/h (1 Bft) 95,65 %
04.07.2019 03:28 12,4 C 10,6 C 10,6 C 75 % 1025,6 hPa 0,0 l/m 0 min 0 min 0 W/m 0,0 km/h (0 Bft) 95,74 %
04.07.2019 03:30 12,3 C 10,6 C 10,6 C 75 % 1025,5 hPa 0,0 l/m 0 min 0 min 0 W/m 0,0 km/h (0 Bft) 95,74 %
04.07.2019 03:32 12,3 C 10,6 C 10,6 C 76 % 1025,5 hPa 0,0 l/m 0 min 0 min 0 W/m 0,0 km/h (0 Bft) 93,62 %
04.07.2019 03:34 12,2 C 10,6 C 10,6 C 76 % 1025,5 hPa 0,0 l/m 0 min 0 min 0 W/m 0,0 km/h (0 Bft) 95,74 %
04.07.2019 03:36 12,2 C 10,6 C 10,6 C 76 % 1025,5 hPa 0,0 l/m 0 min 0 min 0 W/m 3,2 km/h (1 Bft) 95,65 %
04.07.2019 03:38 12,2 C 10,6 C 10,6 C 76 % 1025,5 hPa 0,0 l/m 0 min 0 min 0 W/m 0,0 km/h (0 Bft) 95,74 %
04.07.2019 03:40 12,2 C 10,6 C 10,6 C 76 % 1025,5 hPa 0,0 l/m 0 min 0 min 0 W/m 0,0 km/h (0 Bft) 95,74 %
04.07.2019 03:42 12,1 C 10,6 C 10,6 C 76 % 1025,5 hPa 0,0 l/m 0 min 0 min 0 W/m 3,2 km/h (1 Bft) 93,62 %
04.07.2019 03:44 12,1 C 10,6 C 10,6 C 77 % 1025,5 hPa 0,0 l/m 0 min 0 min 0 W/m 3,2 km/h (1 Bft) 97,87 %
04.07.2019 03:46 12,1 C 10,6 C 10,6 C 77 % 1025,6 hPa 0,0 l/m 0 min 0 min 0 W/m 6,4 km/h (2 Bft) 97,87 %
04.07.2019 03:48 12,1 C 10,6 C 10,6 C 77 % 1025,6 hPa 0,0 l/m 0 min 0 min 0 W/m 0,0 km/h (0 Bft) 95,65 %
04.07.2019 03:50 12,0 C 10,6 C 10,6 C 77 % 1025,5 hPa 0,0 l/m 0 min 0 min 0 W/m 0,0 km/h (0 Bft) 95,74 %
04.07.2019 03:52 12,0 C 10,6 C 10,6 C 77 % 1025,5 hPa 0,0 l/m 0 min 0 min 0 W/m 3,2 km/h (1 Bft) 91,49 %
04.07.2019 03:54 12,0 C 10,6 C 10,6 C 78 % 1025,4 hPa 0,0 l/m 0 min 0 min 0 W/m 3,2 km/h (1 Bft) 95,74 %
04.07.2019 03:56 11,9 C 10,6 C 10,6 C 78 % 1025,4 hPa 0,0 l/m 0 min 0 min 0 W/m 6,4 km/h (2 Bft) 93,62 %
04.07.2019 03:58 11,9 C 10,6 C 10,6 C 78 % 1025,4 hPa 0,0 l/m 0 min 0 min 0 W/m 3,2 km/h (1 Bft) 95,74 %
04.07.2019 04:00 11,9 C 10,6 C 10,6 C 78 % 1025,5 hPa 0,0 l/m 0 min 0 min 0 W/m 3,2 km/h (1 Bft) 95,65 %
04.07.2019 04:02 11,9 C 10,6 C 10,6 C 78 % 1025,4 hPa 0,0 l/m 0 min 0 min 0 W/m 0,0 km/h (0 Bft) 100,00 %
04.07.2019 04:04 11,9 C 10,6 C 10,6 C 78 % 1025,4 hPa 0,0 l/m 0 min 0 min 0 W/m 3,2 km/h (1 Bft) 95,74 %
04.07.2019 04:06 11,9 C 10,6 C 10,6 C 78 % 1025,4 hPa 0,0 l/m 0 min 0 min 0 W/m 3,2 km/h (1 Bft) 95,74 %
04.07.2019 04:08 11,8 C 10,6 C 10,6 C 78 % 1025,3 hPa 0,0 l/m 0 min 0 min 0 W/m 3,2 km/h (1 Bft) 93,62 %
04.07.2019 04:10 11,8 C 10,6 C 10,6 C 78 % 1025,3 hPa 0,0 l/m 0 min 0 min 0 W/m 3,2 km/h (1 Bft) 95,74 %
04.07.2019 04:12 11,8 C 10,6 C 10,6 C 79 % 1025,4 hPa 0,0 l/m 0 min 0 min 0 W/m 3,2 km/h (1 Bft) 93,48 %
04.07.2019 04:14 11,8 C 10,6 C 10,0 C 79 % 1025,4 hPa 0,0 l/m 0 min 0 min 0 W/m 3,2 km/h (1 Bft) 95,74 %
04.07.2019 04:16 11,8 C 10,6 C 10,0 C 79 % 1025,4 hPa 0,0 l/m 0 min 0 min 0 W/m 3,2 km/h (1 Bft) 95,74 %
04.07.2019 04:18 11,8 C 10,6 C 10,0 C 79 % 1025,4 hPa 0,0 l/m 0 min 0 min 0 W/m 3,2 km/h (1 Bft) 97,87 %
04.07.2019 04:20 11,7 C 10,6 C 10,0 C 79 % 1025,4 hPa 0,0 l/m 0 min 0 min 0 W/m 3,2 km/h (1 Bft) 97,87 %
04.07.2019 04:22 11,8 C 10,0 C 10,0 C 79 % 1025,4 hPa 0,0 l/m 0 min 0 min 0 W/m 3,2 km/h (1 Bft) 97,83 %
04.07.2019 04:24 11,7 C 10,0 C 10,0 C 79 % 1025,3 hPa 0,0 l/m 0 min 0 min 0 W/m 3,2 km/h (1 Bft) 93,62 %
04.07.2019 04:26 11,7 C 10,0 C 10,0 C 80 % 1025,3 hPa 0,0 l/m 0 min 0 min 0 W/m 3,2 km/h (1 Bft) 95,74 %
04.07.2019 04:28 11,7 C 10,0 C 10,0 C 79 % 1025,2 hPa 0,0 l/m 0 min 0 min 0 W/m 3,2 km/h (1 Bft) 95,74 %
04.07.2019 04:30 11,7 C 10,0 C 10,0 C 80 % 1025,3 hPa 0,0 l/m 0 min 0 min 0 W/m 3,2 km/h (1 Bft) 97,87 %
04.07.2019 04:32 11,7 C 10,0 C 10,0 C 80 % 1025,3 hPa 0,0 l/m 0 min 0 min 0 W/m 0,0 km/h (0 Bft) 97,87 %
04.07.2019 04:34 11,6 C 10,0 C 10,0 C 80 % 1025,3 hPa 0,0 l/m 0 min 0 min 0 W/m 0,0 km/h (0 Bft) 95,74 %
04.07.2019 04:36 11,6 C 10,0 C 10,0 C 80 % 1025,3 hPa 0,0 l/m 0 min 0 min 0 W/m 0,0 km/h (0 Bft) 95,65 %
04.07.2019 04:38 11,6 C 10,0 C 10,0 C 80 % 1025,3 hPa 0,0 l/m 0 min 0 min 0 W/m 0,0 km/h (0 Bft) 97,87 %
04.07.2019 04:40 11,6 C 10,0 C 10,0 C 80 % 1025,3 hPa 0,0 l/m 0 min 0 min 0 W/m 3,2 km/h (1 Bft) 97,87 %
04.07.2019 04:42 11,6 C 10,0 C 10,0 C 80 % 1025,3 hPa 0,0 l/m 0 min 0 min 0 W/m 3,2 km/h (1 Bft) 97,87 %
04.07.2019 04:44 11,6 C 10,0 C 10,0 C 80 % 1025,3 hPa 0,0 l/m 0 min 0 min 0 W/m 0,0 km/h (0 Bft) 97,87 %
04.07.2019 04:46 11,5 C 10,0 C 10,0 C 80 % 1025,3 hPa 0,0 l/m 0 min 0 min 0 W/m 3,2 km/h (1 Bft) 95,65 %
04.07.2019 04:48 11,5 C 10,0 C 10,0 C 80 % 1025,3 hPa 0,0 l/m 0 min 0 min 0 W/m 3,2 km/h (1 Bft) 100,00 %
04.07.2019 04:50 11,4 C 10,0 C 10,0 C 80 % 1025,3 hPa 0,0 l/m 0 min 0 min 0 W/m 3,2 km/h (1 Bft) 97,87 %
04.07.2019 04:52 11,4 C 10,0 C 9,4 C 80 % 1025,3 hPa 0,0 l/m 0 min 0 min 0 W/m 3,2 km/h (1 Bft) 100,00 %
04.07.2019 04:54 11,4 C 10,0 C 9,4 C 80 % 1025,3 hPa 0,0 l/m 0 min 0 min 0 W/m 0,0 km/h (0 Bft) 100,00 %
04.07.2019 04:56 11,4 C 10,0 C 9,4 C 81 % 1025,3 hPa 0,0 l/m 0 min 0 min 0 W/m 0,0 km/h (0 Bft) 97,87 %
04.07.2019 04:58 11,4 C 10,0 C 9,4 C 80 % 1025,3 hPa 0,0 l/m 0 min 0 min 0 W/m 0,0 km/h (0 Bft) 100,00 %
04.07.2019 05:00 11,3 C 10,0 C 9,4 C 80 % 1025,3 hPa 0,0 l/m 0 min 0 min 0 W/m 3,2 km/h (1 Bft) 97,87 %
04.07.2019 05:02 11,3 C 10,0 C 9,4 C 80 % 1025,3 hPa 0,0 l/m 0 min 0 min 0 W/m 0,0 km/h (0 Bft) 100,00 %
04.07.2019 05:04 11,3 C 10,0 C 9,4 C 80 % 1025,2 hPa 0,0 l/m 0 min 0 min 0 W/m 0,0 km/h (0 Bft) 100,00 %
04.07.2019 05:06 11,3 C 10,0 C 9,4 C 80 % 1025,3 hPa 0,0 l/m 0 min 0 min 0 W/m 0,0 km/h (0 Bft) 100,00 %
04.07.2019 05:08 11,3 C 9,4 C 9,4 C 80 % 1025,3 hPa 0,0 l/m 0 min 0 min 0 W/m 0,0 km/h (0 Bft) 100,00 %
04.07.2019 05:10 11,2 C 10,0 C 9,4 C 80 % 1025,3 hPa 0,0 l/m 0 min 0 min 0 W/m 0,0 km/h (0 Bft) 97,83 %
04.07.2019 05:12 11,2 C 10,0 C 9,4 C 81 % 1025,3 hPa 0,0 l/m 0 min 0 min 0 W/m 0,0 km/h (0 Bft) 97,87 %
04.07.2019 05:14 11,2 C 9,4 C 9,4 C 81 % 1025,2 hPa 0,0 l/m 0 min 0 min 0 W/m 3,2 km/h (1 Bft) 100,00 %
04.07.2019 05:16 11,2 C 9,4 C 9,4 C 81 % 1025,3 hPa 0,0 l/m 0 min 0 min 0 W/m 3,2 km/h (1 Bft) 97,87 %
04.07.2019 05:18 11,2 C 10,0 C 9,4 C 81 % 1025,3 hPa 0,0 l/m 0 min 0 min 0 W/m 3,2 km/h (1 Bft) 97,87 %
04.07.2019 05:20 11,2 C 10,0 C 9,4 C 81 % 1025,3 hPa 0,0 l/m 0 min 0 min 0 W/m 3,2 km/h (1 Bft) 97,87 %
04.07.2019 05:22 11,1 C 10,0 C 9,4 C 81 % 1025,4 hPa 0,0 l/m 0 min 0 min 0 W/m 0,0 km/h (0 Bft) 95,65 %
04.07.2019 05:24 11,1 C 9,4 C 9,4 C 81 % 1025,3 hPa 0,0 l/m 0 min 0 min 0 W/m 0,0 km/h (0 Bft) 97,87 %
04.07.2019 05:26 11,1 C 10,0 C 9,4 C 81 % 1025,3 hPa 0,0 l/m 0 min 0 min 0 W/m 3,2 km/h (1 Bft) 97,87 %
04.07.2019 05:28 11,1 C 10,0 C 9,4 C 81 % 1025,3 hPa 0,0 l/m 0 min 0 min 0 W/m 0,0 km/h (0 Bft) 97,87 %
04.07.2019 05:30 11,0 C 10,0 C 9,4 C 81 % 1025,3 hPa 0,0 l/m 0 min 0 min 0 W/m 3,2 km/h (1 Bft) 97,87 %
04.07.2019 05:32 11,0 C 9,4 C 9,4 C 81 % 1025,3 hPa 0,0 l/m 0 min 0 min 3 W/m 0,0 km/h (0 Bft) 97,83 %
04.07.2019 05:34 11,0 C 9,4 C 9,4 C 81 % 1025,3 hPa 0,0 l/m 0 min 0 min 5 W/m 0,0 km/h (0 Bft) 95,74 %
04.07.2019 05:36 10,9 C 9,4 C 9,4 C 81 % 1025,3 hPa 0,0 l/m 0 min 0 min 5 W/m 0,0 km/h (0 Bft) 97,87 %
04.07.2019 05:38 10,9 C 9,4 C 9,4 C 81 % 1025,3 hPa 0,0 l/m 0 min 0 min 5 W/m 0,0 km/h (0 Bft) 94,00 %
04.07.2019 05:40 10,9 C 9,4 C 9,4 C 81 % 1025,4 hPa 0,0 l/m 0 min 0 min 6 W/m 0,0 km/h (0 Bft) 97,87 %
04.07.2019 05:42 10,9 C 9,4 C 9,4 C 81 % 1025,3 hPa 0,0 l/m 0 min 0 min 7 W/m 0,0 km/h (0 Bft) 97,87 %
04.07.2019 05:44 10,9 C 9,4 C 9,4 C 81 % 1025,4 hPa 0,0 l/m 0 min 0 min 7 W/m 0,0 km/h (0 Bft) 97,83 %
04.07.2019 05:46 10,9 C 9,4 C 9,4 C 82 % 1025,4 hPa 0,0 l/m 0 min 0 min 7 W/m 0,0 km/h (0 Bft) 95,74 %
04.07.2019 05:48 10,8 C 9,4 C 9,4 C 82 % 1025,4 hPa 0,0 l/m 0 min 0 min 9 W/m 0,0 km/h (0 Bft) 97,87 %
04.07.2019 05:50 10,8 C 9,4 C 9,4 C 82 % 1025,4 hPa 0,0 l/m 0 min 0 min 9 W/m 0,0 km/h (0 Bft) 95,74 %
04.07.2019 05:52 10,8 C 9,4 C 9,4 C 82 % 1025,4 hPa 0,0 l/m 0 min 0 min 10 W/m 0,0 km/h (0 Bft) 95,74 %
04.07.2019 05:54 10,8 C 9,4 C 9,4 C 82 % 1025,4 hPa 0,0 l/m 0 min 0 min 11 W/m 6,4 km/h (2 Bft) 100,00 %
04.07.2019 05:56 10,8 C 9,4 C 9,4 C 82 % 1025,4 hPa 0,0 l/m 0 min 0 min 11 W/m 0,0 km/h (0 Bft) 100,00 %
04.07.2019 05:58 10,8 C 9,4 C 9,4 C 82 % 1025,3 hPa 0,0 l/m 0 min 0 min 11 W/m 0,0 km/h (0 Bft) 100,00 %
04.07.2019 06:00 10,8 C 9,4 C 9,4 C 82 % 1025,4 hPa 0,0 l/m 0 min 0 min 12 W/m 0,0 km/h (0 Bft) 95,74 %
04.07.2019 06:02 10,7 C 9,4 C 9,4 C 82 % 1025,3 hPa 0,0 l/m 0 min 0 min 12 W/m 0,0 km/h (0 Bft) 100,00 %
04.07.2019 06:04 10,7 C 9,4 C 9,4 C 82 % 1025,3 hPa 0,0 l/m 0 min 0 min 12 W/m 0,0 km/h (0 Bft) 100,00 %
04.07.2019 06:08 10,7 C 9,4 C 9,4 C 82 % 1025,3 hPa 0,0 l/m 0 min 0 min 13 W/m 0,0 km/h (0 Bft) 100,00 %
04.07.2019 06:10 10,7 C 10,0 C 9,4 C 82 % 1025,3 hPa 0,0 l/m 0 min 0 min 14 W/m 3,2 km/h (1 Bft) 97,87 %
04.07.2019 06:12 10,7 C 10,0 C 9,4 C 82 % 1025,3 hPa 0,0 l/m 0 min 0 min 14 W/m 0,0 km/h (0 Bft) 100,00 %
04.07.2019 06:14 10,7 C 10,0 C 9,4 C 83 % 1025,3 hPa 0,0 l/m 0 min 0 min 14 W/m 0,0 km/h (0 Bft) 100,00 %
04.07.2019 06:16 10,7 C 10,0 C 9,4 C 83 % 1025,2 hPa 0,0 l/m 0 min 0 min 16 W/m 0,0 km/h (0 Bft) 97,87 %
04.07.2019 06:18 10,7 C 10,0 C 9,4 C 83 % 1025,3 hPa 0,0 l/m 0 min 0 min 16 W/m 3,2 km/h (1 Bft) 100,00 %
04.07.2019 06:20 10,7 C 10,0 C 9,4 C 83 % 1025,3 hPa 0,0 l/m 0 min 0 min 16 W/m 0,0 km/h (0 Bft) 100,00 %
04.07.2019 06:22 10,7 C 10,0 C 9,4 C 83 % 1025,4 hPa 0,0 l/m 0 min 0 min 18 W/m 0,0 km/h (0 Bft) 100,00 %
04.07.2019 06:24 10,6 C 10,0 C 9,4 C 83 % 1025,3 hPa 0,0 l/m 0 min 0 min 18 W/m 0,0 km/h (0 Bft) 100,00 %
04.07.2019 06:26 10,6 C 10,0 C 9,4 C 83 % 1025,4 hPa 0,0 l/m 0 min 0 min 18 W/m 0,0 km/h (0 Bft) 100,00 %
04.07.2019 06:28 10,6 C 10,0 C 9,4 C 83 % 1025,4 hPa 0,0 l/m 0 min 0 min 18 W/m 0,0 km/h (0 Bft) 100,00 %
04.07.2019 06:30 10,6 C 10,0 C 9,4 C 84 % 1025,4 hPa 0,0 l/m 0 min 0 min 19 W/m 0,0 km/h (0 Bft) 100,00 %
04.07.2019 06:32 10,6 C 10,0 C 9,4 C 84 % 1025,4 hPa 0,0 l/m 0 min 0 min 19 W/m 0,0 km/h (0 Bft) 100,00 %
04.07.2019 06:34 10,6 C 10,0 C 9,4 C 84 % 1025,4 hPa 0,0 l/m 0 min 0 min 19 W/m 3,2 km/h (1 Bft) 100,00 %
04.07.2019 06:36 10,6 C 10,0 C 9,4 C 84 % 1025,4 hPa 0,0 l/m 0 min 0 min 19 W/m 0,0 km/h (0 Bft) 100,00 %
04.07.2019 06:38 10,6 C 10,0 C 10,0 C 84 % 1025,4 hPa 0,0 l/m 0 min 0 min 21 W/m 3,2 km/h (1 Bft) 100,00 %
04.07.2019 06:40 10,6 C 10,6 C 10,0 C 84 % 1025,4 hPa 0,0 l/m 0 min 0 min 21 W/m 6,4 km/h (2 Bft) 100,00 %
04.07.2019 06:42 10,7 C 10,6 C 10,0 C 84 % 1025,4 hPa 0,0 l/m 0 min 0 min 21 W/m 3,2 km/h (1 Bft) 100,00 %
04.07.2019 06:44 10,7 C 10,6 C 10,0 C 85 % 1025,4 hPa 0,0 l/m 0 min 0 min 21 W/m 0,0 km/h (0 Bft) 100,00 %
04.07.2019 06:46 10,7 C 10,6 C 10,0 C 85 % 1025,3 hPa 0,0 l/m 0 min 0 min 23 W/m 3,2 km/h (1 Bft) 100,00 %
04.07.2019 06:48 10,7 C 10,6 C 10,0 C 85 % 1025,3 hPa 0,0 l/m 0 min 0 min 23 W/m 3,2 km/h (1 Bft) 100,00 %
04.07.2019 06:50 10,7 C 10,6 C 10,0 C 85 % 1025,4 hPa 0,0 l/m 0 min 0 min 23 W/m 3,2 km/h (1 Bft) 100,00 %
04.07.2019 06:52 10,7 C 10,6 C 10,0 C 85 % 1025,4 hPa 0,0 l/m 0 min 0 min 24 W/m 6,4 km/h (2 Bft) 97,87 %
04.07.2019 06:54 10,8 C 11,1 C 10,0 C 85 % 1025,4 hPa 0,0 l/m 0 min 0 min 25 W/m 6,4 km/h (2 Bft) 100,00 %
04.07.2019 06:56 10,8 C 11,1 C 10,6 C 86 % 1025,4 hPa 0,0 l/m 0 min 0 min 25 W/m 3,2 km/h (1 Bft) 97,87 %
04.07.2019 06:58 10,8 C 11,1 C 10,6 C 86 % 1025,4 hPa 0,0 l/m 0 min 0 min 25 W/m 9,7 km/h (2 Bft) 97,87 %
04.07.2019 07:00 10,8 C 11,1 C 10,6 C 86 % 1025,4 hPa 0,0 l/m 0 min 0 min 26 W/m 9,7 km/h (2 Bft) 95,74 %
04.07.2019 07:02 10,9 C 11,1 C 10,6 C 86 % 1025,4 hPa 0,0 l/m 0 min 0 min 26 W/m 6,4 km/h (2 Bft) 97,87 %
04.07.2019 07:04 10,9 C 11,1 C 10,6 C 86 % 1025,5 hPa 0,0 l/m 0 min 0 min 27 W/m 3,2 km/h (1 Bft) 97,83 %
04.07.2019 07:06 11,0 C 11,1 C 10,6 C 86 % 1025,5 hPa 0,0 l/m 0 min 0 min 28 W/m 6,4 km/h (2 Bft) 96,72 %
04.07.2019 07:10 11,1 C 11,1 C 10,6 C 86 % 1025,6 hPa 0,0 l/m 0 min 0 min 29 W/m 3,2 km/h (1 Bft) 95,06 %
04.07.2019 07:11 11,1 C 11,1 C 11,1 C 86 % 1025,6 hPa 0,0 l/m 0 min 0 min 30 W/m 3,2 km/h (1 Bft) 95,06 %
04.07.2019 07:12 11,1 C 11,7 C 11,1 C 86 % 1025,6 hPa 0,0 l/m 0 min 0 min 30 W/m 3,2 km/h (1 Bft) 95,06 %
04.07.2019 07:14 11,2 C 11,7 C 10,6 C 86 % 1025,6 hPa 0,0 l/m 0 min 0 min 31 W/m 6,4 km/h (2 Bft) 95,40 %
04.07.2019 07:16 11,2 C 11,7 C 11,1 C 86 % 1025,6 hPa 0,0 l/m 0 min 0 min 32 W/m 6,4 km/h (2 Bft) 98,15 %
04.07.2019 07:20 11,3 C 11,7 C 11,1 C 86 % 1025,6 hPa 0,0 l/m 0 min 0 min 32 W/m 3,2 km/h (1 Bft) 92,86 %
04.07.2019 07:22 11,3 C 11,7 C 11,1 C 86 % 1025,6 hPa 0,0 l/m 0 min 0 min 34 W/m 0,0 km/h (0 Bft) 94,59 %
04.07.2019 07:26 11,4 C 11,7 C 11,1 C 86 % 1025,7 hPa 0,0 l/m 0 min 0 min 36 W/m 6,4 km/h (2 Bft) 92,71 %
04.07.2019 07:28 11,5 C 12,2 C 11,7 C 86 % 1025,6 hPa 0,0 l/m 0 min 0 min 39 W/m 3,2 km/h (1 Bft) 91,07 %
04.07.2019 07:30 11,6 C 12,2 C 11,7 C 86 % 1025,6 hPa 0,0 l/m 0 min 0 min 40 W/m 3,2 km/h (1 Bft) 92,11 %
04.07.2019 07:34 11,6 C 12,2 C 11,7 C 86 % 1025,6 hPa 0,0 l/m 0 min 0 min 41 W/m 6,4 km/h (2 Bft) 93,75 %
04.07.2019 07:36 11,7 C 12,2 C 11,7 C 85 % 1025,7 hPa 0,0 l/m 0 min 0 min 43 W/m 3,2 km/h (1 Bft) 89,80 %
04.07.2019 07:40 11,8 C 12,2 C 11,7 C 85 % 1025,7 hPa 0,0 l/m 0 min 0 min 45 W/m 6,4 km/h (2 Bft) 93,75 %
04.07.2019 07:42 11,8 C 12,2 C 11,7 C 85 % 1025,7 hPa 0,0 l/m 0 min 0 min 44 W/m 6,4 km/h (2 Bft) 95,12 %
04.07.2019 07:46 11,9 C 12,8 C 12,2 C 85 % 1025,7 hPa 0,0 l/m 0 min 0 min 45 W/m 6,4 km/h (2 Bft) 94,90 %
04.07.2019 07:48 12,0 C 12,8 C 12,2 C 85 % 1025,7 hPa 0,0 l/m 0 min 0 min 46 W/m 3,2 km/h (1 Bft) 94,87 %
04.07.2019 07:50 12,1 C 12,8 C 12,2 C 85 % 1025,7 hPa 0,0 l/m 0 min 0 min 46 W/m 6,4 km/h (2 Bft) 93,75 %
04.07.2019 07:54 12,2 C 12,8 C 12,2 C 84 % 1025,7 hPa 0,0 l/m 0 min 0 min 47 W/m 6,4 km/h (2 Bft) 93,68 %
04.07.2019 07:56 12,3 C 12,8 C 12,2 C 84 % 1025,8 hPa 0,0 l/m 0 min 0 min 47 W/m 3,2 km/h (1 Bft) 93,88 %
04.07.2019 08:00 12,4 C 13,3 C 12,2 C 84 % 1025,8 hPa 0,0 l/m 0 min 0 min 49 W/m 6,4 km/h (2 Bft) 95,70 %
04.07.2019 08:02 12,4 C 14,4 C 12,2 C 84 % 1025,7 hPa 0,0 l/m 0 min 0 min 48 W/m 3,2 km/h (1 Bft) 93,62 %
04.07.2019 08:06 12,6 C 17,2 C 12,8 C 84 % 1025,8 hPa 0,0 l/m 0 min 0 min 47 W/m 3,2 km/h (1 Bft) 97,75 %
04.07.2019 08:08 12,6 C 17,8 C 12,8 C 83 % 1025,7 hPa 0,0 l/m 0 min 0 min 47 W/m 6,4 km/h (2 Bft) 95,92 %
04.07.2019 08:10 12,7 C 18,3 C 12,8 C 83 % 1025,7 hPa 0,0 l/m 0 min 0 min 47 W/m 3,2 km/h (1 Bft) 98,11 %
04.07.2019 08:14 12,9 C 19,4 C 12,8 C 83 % 1025,7 hPa 0,0 l/m 0 min 0 min 50 W/m 3,2 km/h (1 Bft) 96,81 %
04.07.2019 08:18 13,2 C 19,4 C 12,8 C 83 % 1025,7 hPa 0,0 l/m 0 min 0 min 49 W/m 6,4 km/h (2 Bft) 98,80 %
04.07.2019 08:22 13,6 C 20,0 C 13,3 C 82 % 1025,7 hPa 0,0 l/m 0 min 0 min 51 W/m 9,7 km/h (2 Bft) 100,00 %
04.07.2019 08:24 13,8 C 20,6 C 13,9 C 82 % 1025,7 hPa 0,0 l/m 0 min 0 min 53 W/m 6,4 km/h (2 Bft) 100,00 %
04.07.2019 08:28 14,2 C 21,1 C 14,4 C 81 % 1025,7 hPa 0,0 l/m 0 min 0 min 54 W/m 6,4 km/h (2 Bft) 98,88 %
04.07.2019 08:30 14,3 C 21,1 C 15,0 C 80 % 1025,7 hPa 0,0 l/m 0 min 0 min 55 W/m 6,4 km/h (2 Bft) 100,00 %
04.07.2019 08:34 14,7 C 21,1 C 18,9 C 78 % 1025,7 hPa 0,0 l/m 0 min 0 min 56 W/m 6,4 km/h (2 Bft) 100,00 %
04.07.2019 08:36 14,9 C 21,1 C 20,6 C 78 % 1025,7 hPa 0,0 l/m 0 min 0 min 58 W/m 6,4 km/h (2 Bft) 100,00 %
04.07.2019 08:40 15,3 C 21,1 C 21,7 C 76 % 1025,7 hPa 0,0 l/m 0 min 0 min 59 W/m 9,7 km/h (2 Bft) 100,00 %
04.07.2019 08:44 15,6 C 20,6 C 21,7 C 75 % 1025,7 hPa 0,0 l/m 0 min 0 min 61 W/m 9,7 km/h (2 Bft) 100,00 %
04.07.2019 08:48 15,9 C 21,1 C 22,8 C 74 % 1025,7 hPa 0,0 l/m 0 min 0 min 60 W/m 6,4 km/h (2 Bft) 100,00 %
04.07.2019 08:50 16,0 C 21,1 C 22,8 C 74 % 1025,8 hPa 0,0 l/m 0 min 0 min 65 W/m 6,4 km/h (2 Bft) 100,00 %
04.07.2019 08:54 16,3 C 21,7 C 23,9 C 74 % 1025,7 hPa 0,0 l/m 0 min 0 min 65 W/m 6,4 km/h (2 Bft) 98,78 %
04.07.2019 08:56 16,4 C 22,2 C 24,4 C 73 % 1025,7 hPa 0,0 l/m 0 min 0 min 71 W/m 9,7 km/h (2 Bft) 98,15 %
04.07.2019 08:58 16,5 C 22,2 C 24,4 C 72 % 1025,7 hPa 0,0 l/m 0 min 0 min 79 W/m 9,7 km/h (2 Bft) 100,00 %
04.07.2019 09:02 16,7 C 22,2 C 23,9 C 71 % 1025,7 hPa 0,0 l/m 0 min 0 min 105 W/m 9,7 km/h (2 Bft) 100,00 %
04.07.2019 09:04 16,8 C 22,8 C 23,9 C 71 % 1025,8 hPa 0,0 l/m 0 min 0 min 144 W/m 6,4 km/h (2 Bft) 97,87 %
04.07.2019 09:08 17,1 C 23,3 C 25,0 C 71 % 1025,9 hPa 0,0 l/m 0 min 0 min 206 W/m 6,4 km/h (2 Bft) 100,00 %
04.07.2019 09:10 17,2 C 23,9 C 25,6 C 70 % 1025,8 hPa 0,0 l/m 2 min 0 min 266 W/m 3,2 km/h (1 Bft) 100,00 %
04.07.2019 09:14 17,3 C 23,3 C 25,0 C 68 % 1025,9 hPa 0,0 l/m 4 min 0 min 340 W/m 9,7 km/h (2 Bft) 100,00 %
04.07.2019 09:16 17,4 C 23,9 C 26,1 C 69 % 1025,8 hPa 0,0 l/m 2 min 0 min 401 W/m 3,2 km/h (1 Bft) 100,00 %
04.07.2019 09:20 17,7 C 23,9 C 26,1 C 67 % 1025,8 hPa 0,0 l/m 4 min 0 min 461 W/m 6,4 km/h (2 Bft) 98,97 %
04.07.2019 09:22 17,7 C 25,0 C 26,1 C 67 % 1025,8 hPa 0,0 l/m 2 min 0 min 502 W/m 6,4 km/h (2 Bft) 97,56 %
04.07.2019 09:24 17,8 C 23,9 C 26,1 C 67 % 1025,8 hPa 0,0 l/m 2 min 0 min 518 W/m 9,7 km/h (2 Bft) 98,04 %
04.07.2019 09:28 18,1 C 23,9 C 25,6 C 66 % 1025,7 hPa 0,0 l/m 4 min 0 min 528 W/m 6,4 km/h (2 Bft) 96,88 %
04.07.2019 09:30 18,1 C 23,3 C 25,0 C 65 % 1025,7 hPa 0,0 l/m 2 min 0 min 537 W/m 9,7 km/h (2 Bft) 100,00 %
04.07.2019 09:34 18,3 C 24,4 C 26,1 C 65 % 1025,8 hPa 0,0 l/m 4 min 0 min 558 W/m 6,4 km/h (2 Bft) 98,44 %
04.07.2019 09:36 18,3 C 24,4 C 26,1 C 65 % 1025,8 hPa 0,0 l/m 2 min 0 min 561 W/m 6,4 km/h (2 Bft) 97,87 %
04.07.2019 09:38 18,4 C 24,4 C 26,7 C 65 % 1025,8 hPa 0,0 l/m 2 min 0 min 565 W/m 6,4 km/h (2 Bft) 95,65 %
04.07.2019 09:40 18,5 C 24,4 C 25,6 C 64 % 1025,7 hPa 0,0 l/m 2 min 0 min 568 W/m 9,7 km/h (2 Bft) 100,00 %
04.07.2019 09:45 18,6 C 24,4 C 26,1 C 62 % 1025,7 hPa 0,0 l/m 5 min 0 min 588 W/m 9,7 km/h (2 Bft) 99,12 %
04.07.2019 09:50 18,7 C 25,6 C 26,1 C 63 % 1025,7 hPa 0,0 l/m 5 min 0 min 606 W/m 9,7 km/h (2 Bft) 100,00 %
04.07.2019 09:55 18,9 C 25,6 C 27,2 C 62 % 1025,7 hPa 0,0 l/m 5 min 0 min 619 W/m 9,7 km/h (2 Bft) 100,00 %
04.07.2019 10:00 19,2 C 26,1 C 28,3 C 62 % 1025,7 hPa 0,0 l/m 5 min 0 min 626 W/m 9,7 km/h (2 Bft) 100,00 %
04.07.2019 10:05 19,4 C 26,1 C 27,8 C 60 % 1025,6 hPa 0,0 l/m 5 min 0 min 640 W/m 9,7 km/h (2 Bft) 100,00 %
04.07.2019 10:10 19,6 C 25,6 C 27,8 C 58 % 1025,6 hPa 0,0 l/m 5 min 0 min 656 W/m 9,7 km/h (2 Bft) 100,00 %
04.07.2019 10:15 19,7 C 25,6 C 27,8 C 59 % 1025,6 hPa 0,0 l/m 5 min 0 min 670 W/m 9,7 km/h (2 Bft) 99,12 %
04.07.2019 10:20 19,9 C 27,2 C 28,9 C 59 % 1025,6 hPa 0,0 l/m 5 min 0 min 692 W/m 6,4 km/h (2 Bft) 99,12 %
04.07.2019 10:25 20,2 C 28,9 C 31,1 C 57 % 1025,7 hPa 0,0 l/m 5 min 0 min 703 W/m 6,4 km/h (2 Bft) 100,00 %
04.07.2019 10:30 20,4 C 27,8 C 30,6 C 58 % 1025,7 hPa 0,0 l/m 5 min 0 min 718 W/m 9,7 km/h (2 Bft) 100,00 %
04.07.2019 10:35 20,6 C 27,8 C 30,0 C 54 % 1025,7 hPa 0,0 l/m 5 min 0 min 724 W/m 9,7 km/h (2 Bft) 100,00 %
04.07.2019 10:40 20,7 C 27,2 C 29,4 C 54 % 1025,7 hPa 0,0 l/m 5 min 0 min 735 W/m 9,7 km/h (2 Bft) 100,00 %
04.07.2019 10:45 20,8 C 27,8 C 29,4 C 53 % 1025,8 hPa 0,0 l/m 5 min 0 min 745 W/m 6,4 km/h (2 Bft) 100,00 %
04.07.2019 10:50 21,0 C 28,9 C 30,6 C 53 % 1025,7 hPa 0,0 l/m 5 min 0 min 759 W/m 6,4 km/h (2 Bft) 99,12 %
04.07.2019 10:55 21,1 C 27,2 C 28,9 C 52 % 1025,7 hPa 0,0 l/m 5 min 0 min 770 W/m 9,7 km/h (2 Bft) 100,00 %
04.07.2019 10:58 21,2 C 27,8 C 29,4 C 54 % 1025,7 hPa 0,0 l/m 3 min 0 min 779 W/m 9,7 km/h (2 Bft) 100,00 %
04.07.2019 11:00 21,3 C 29,4 C 29,4 C 55 % 1025,6 hPa 0,0 l/m 2 min 0 min 784 W/m 6,4 km/h (2 Bft) 100,00 %
04.07.2019 11:02 21,3 C 28,3 C 31,1 C 52 % 1025,6 hPa 0,0 l/m 2 min 0 min 787 W/m 9,7 km/h (2 Bft) 97,87 %
04.07.2019 11:04 21,3 C 27,2 C 30,0 C 51 % 1025,6 hPa 0,0 l/m 2 min 0 min 794 W/m 16,1 km/h (3 Bft) 97,14 %
04.07.2019 11:06 21,3 C 26,7 C 28,9 C 50 % 1025,6 hPa 0,0 l/m 2 min 0 min 799 W/m 9,7 km/h (2 Bft) 98,28 %
04.07.2019 11:08 21,3 C 26,7 C 28,9 C 49 % 1025,6 hPa 0,0 l/m 2 min 0 min 803 W/m 9,7 km/h (2 Bft) 100,00 %
04.07.2019 11:10 21,2 C 27,2 C 28,9 C 49 % 1025,6 hPa 0,0 l/m 2 min 0 min 806 W/m 16,1 km/h (3 Bft) 100,00 %
04.07.2019 11:12 21,2 C 27,2 C 28,9 C 50 % 1025,5 hPa 0,0 l/m 2 min 0 min 806 W/m 6,4 km/h (2 Bft) 98,15 %
04.07.2019 11:14 21,2 C 28,3 C 30,0 C 52 % 1025,5 hPa 0,0 l/m 2 min 0 min 810 W/m 9,7 km/h (2 Bft) 100,00 %
04.07.2019 11:16 21,3 C 27,2 C 30,0 C 51 % 1025,5 hPa 0,0 l/m 2 min 0 min 812 W/m 6,4 km/h (2 Bft) 100,00 %
04.07.2019 11:18 21,3 C 27,2 C 30,0 C 52 % 1025,5 hPa 0,0 l/m 2 min 0 min 814 W/m 6,4 km/h (2 Bft) 100,00 %
04.07.2019 11:20 21,4 C 28,3 C 31,1 C 54 % 1025,5 hPa 0,0 l/m 2 min 0 min 815 W/m 9,7 km/h (2 Bft) 100,00 %
04.07.2019 11:22 21,4 C 28,3 C 31,7 C 52 % 1025,5 hPa 0,0 l/m 2 min 0 min 818 W/m 9,7 km/h (2 Bft) 100,00 %
04.07.2019 11:24 21,6 C 28,3 C 31,1 C 52 % 1025,5 hPa 0,0 l/m 2 min 0 min 823 W/m 9,7 km/h (2 Bft) 100,00 %
04.07.2019 11:26 21,6 C 28,3 C 29,4 C 50 % 1025,5 hPa 0,0 l/m 2 min 0 min 830 W/m 6,4 km/h (2 Bft) 100,00 %
04.07.2019 11:28 21,7 C 29,4 C 30,6 C 51 % 1025,5 hPa 0,0 l/m 2 min 0 min 831 W/m 9,7 km/h (2 Bft) 100,00 %
04.07.2019 11:30 21,8 C 29,4 C 30,6 C 54 % 1025,4 hPa 0,0 l/m 2 min 0 min 838 W/m 9,7 km/h (2 Bft) 97,96 %
04.07.2019 11:32 21,9 C 30,0 C 30,6 C 52 % 1025,4 hPa 0,0 l/m 2 min 0 min 841 W/m 6,4 km/h (2 Bft) 100,00 %
04.07.2019 11:34 22,0 C 30,6 C 31,1 C 52 % 1025,4 hPa 0,0 l/m 2 min 0 min 846 W/m 6,4 km/h (2 Bft) 100,00 %
04.07.2019 11:36 22,1 C 28,3 C 30,0 C 49 % 1025,4 hPa 0,0 l/m 2 min 0 min 850 W/m 12,9 km/h (3 Bft) 100,00 %
04.07.2019 11:38 22,0 C 27,8 C 29,4 C 50 % 1025,4 hPa 0,0 l/m 2 min 0 min 853 W/m 9,7 km/h (2 Bft) 100,00 %
04.07.2019 11:40 22,0 C 27,2 C 30,0 C 48 % 1025,3 hPa 0,0 l/m 2 min 0 min 860 W/m 9,7 km/h (2 Bft) 97,92 %
04.07.2019 11:42 22,0 C 27,2 C 30,0 C 48 % 1025,2 hPa 0,0 l/m 2 min 0 min 862 W/m 9,7 km/h (2 Bft) 100,00 %
04.07.2019 11:44 22,1 C 28,9 C 30,6 C 50 % 1025,2 hPa 0,0 l/m 2 min 0 min 862 W/m 9,7 km/h (2 Bft) 100,00 %
04.07.2019 11:46 22,1 C 29,4 C 31,7 C 51 % 1025,2 hPa 0,0 l/m 2 min 0 min 865 W/m 9,7 km/h (2 Bft) 100,00 %
04.07.2019 11:48 22,2 C 30,6 C 31,1 C 48 % 1025,1 hPa 0,0 l/m 2 min 0 min 869 W/m 3,2 km/h (1 Bft) 93,62 %
04.07.2019 11:50 22,3 C 30,6 C 32,2 C 50 % 1025,1 hPa 0,0 l/m 2 min 0 min 873 W/m 6,4 km/h (2 Bft) 97,56 %
04.07.2019 11:52 22,3 C 28,3 C 30,0 C 47 % 1025,0 hPa 0,0 l/m 2 min 0 min 873 W/m 9,7 km/h (2 Bft) 97,87 %
04.07.2019 11:54 22,4 C 30,6 C 32,2 C 49 % 1025,0 hPa 0,0 l/m 2 min 0 min 878 W/m 6,4 km/h (2 Bft) 95,83 %
04.07.2019 11:56 22,5 C 30,6 C 31,7 C 48 % 1025,1 hPa 0,0 l/m 2 min 0 min 880 W/m 6,4 km/h (2 Bft) 95,74 %
04.07.2019 11:58 22,6 C 31,7 C 31,7 C 49 % 1025,0 hPa 0,0 l/m 2 min 0 min 881 W/m 3,2 km/h (1 Bft) 93,48 %
04.07.2019 12:00 22,7 C 30,0 C 30,6 C 47 % 1025,0 hPa 0,0 l/m 2 min 0 min 884 W/m 6,4 km/h (2 Bft) 97,92 %
04.07.2019 12:02 22,7 C 28,9 C 30,0 C 48 % 1025,0 hPa 0,0 l/m 2 min 0 min 887 W/m 12,9 km/h (3 Bft) 97,87 %
04.07.2019 12:04 22,7 C 28,3 C 29,4 C 48 % 1024,9 hPa 0,0 l/m 2 min 0 min 892 W/m 16,1 km/h (3 Bft) 97,87 %
04.07.2019 12:08 22,7 C 29,4 C 30,6 C 49 % 1025,1 hPa 0,0 l/m 4 min 0 min 897 W/m 6,4 km/h (2 Bft) 93,62 %
04.07.2019 12:10 22,7 C 28,9 C 30,6 C 47 % 1025,1 hPa 0,0 l/m 2 min 0 min 900 W/m 9,7 km/h (2 Bft) 95,65 %
04.07.2019 12:12 22,7 C 28,9 C 30,6 C 47 % 1025,0 hPa 0,0 l/m 2 min 0 min 902 W/m 9,7 km/h (2 Bft) 95,74 %
04.07.2019 12:14 22,7 C 28,9 C 30,6 C 45 % 1025,0 hPa 0,0 l/m 2 min 0 min 903 W/m 6,4 km/h (2 Bft) 95,83 %
04.07.2019 12:16 22,7 C 29,4 C 31,1 C 46 % 1025,0 hPa 0,0 l/m 2 min 0 min 909 W/m 9,7 km/h (2 Bft) 93,62 %
04.07.2019 12:18 22,7 C 28,9 C 31,1 C 44 % 1024,9 hPa 0,0 l/m 2 min 0 min 912 W/m 9,7 km/h (2 Bft) 95,74 %
04.07.2019 12:20 22,7 C 29,4 C 31,7 C 46 % 1025,0 hPa 0,0 l/m 2 min 0 min 912 W/m 9,7 km/h (2 Bft) 95,65 %
04.07.2019 12:22 22,8 C 30,0 C 32,2 C 47 % 1024,9 hPa 0,0 l/m 2 min 0 min 915 W/m 9,7 km/h (2 Bft) 95,74 %
04.07.2019 12:24 22,8 C 30,0 C 33,3 C 47 % 1024,9 hPa 0,0 l/m 2 min 0 min 921 W/m 6,4 km/h (2 Bft) 95,74 %
04.07.2019 12:26 22,9 C 31,1 C 33,3 C 48 % 1024,9 hPa 0,0 l/m 2 min 0 min 922 W/m 6,4 km/h (2 Bft) 95,74 %
04.07.2019 12:28 22,9 C 30,6 C 32,8 C 45 % 1024,9 hPa 0,0 l/m 2 min 0 min 921 W/m 6,4 km/h (2 Bft) 95,74 %
04.07.2019 12:30 23,0 C 30,6 C 33,3 C 45 % 1024,8 hPa 0,0 l/m 2 min 0 min 925 W/m 6,4 km/h (2 Bft) 95,74 %
04.07.2019 12:32 23,0 C 29,4 C 32,2 C 44 % 1024,8 hPa 0,0 l/m 2 min 0 min 927 W/m 9,7 km/h (2 Bft) 97,83 %
04.07.2019 12:34 23,0 C 29,4 C 31,1 C 44 % 1024,9 hPa 0,0 l/m 2 min 0 min 922 W/m 6,4 km/h (2 Bft) 97,87 %
04.07.2019 12:36 23,0 C 28,3 C 30,6 C 44 % 1024,8 hPa 0,0 l/m 2 min 0 min 934 W/m 12,9 km/h (3 Bft) 95,74 %
04.07.2019 12:38 23,1 C 29,4 C 32,2 C 46 % 1024,8 hPa 0,0 l/m 2 min 0 min 941 W/m 9,7 km/h (2 Bft) 97,87 %
04.07.2019 12:40 23,1 C 29,4 C 32,2 C 45 % 1024,8 hPa 0,0 l/m 2 min 0 min 916 W/m 16,1 km/h (3 Bft) 97,87 %
04.07.2019 12:42 23,1 C 30,6 C 32,2 C 45 % 1024,7 hPa 0,0 l/m 2 min 0 min 929 W/m 9,7 km/h (2 Bft) 97,87 %
04.07.2019 12:44 23,2 C 31,1 C 33,3 C 47 % 1024,7 hPa 0,0 l/m 2 min 0 min 935 W/m 6,4 km/h (2 Bft) 97,83 %
04.07.2019 12:46 23,3 C 30,0 C 32,8 C 48 % 1024,7 hPa 0,0 l/m 2 min 0 min 933 W/m 6,4 km/h (2 Bft) 91,49 %
04.07.2019 12:48 23,3 C 29,4 C 32,8 C 46 % 1024,7 hPa 0,0 l/m 2 min 0 min 939 W/m 12,9 km/h (3 Bft) 97,87 %
04.07.2019 12:50 23,3 C 28,3 C 32,2 C 45 % 1024,7 hPa 0,0 l/m 2 min 0 min 946 W/m 19,3 km/h (3 Bft) 97,87 %
04.07.2019 12:52 23,2 C 28,9 C 32,2 C 44 % 1024,7 hPa 0,0 l/m 2 min 0 min 951 W/m 9,7 km/h (2 Bft) 95,74 %
04.07.2019 12:54 23,2 C 28,3 C 31,1 C 45 % 1024,6 hPa 0,0 l/m 2 min 0 min 950 W/m 6,4 km/h (2 Bft) 97,83 %
04.07.2019 12:56 23,1 C 27,8 C 30,0 C 44 % 1024,6 hPa 0,0 l/m 2 min 0 min 945 W/m 9,7 km/h (2 Bft) 97,87 %
04.07.2019 12:58 23,1 C 28,9 C 32,2 C 44 % 1024,6 hPa 0,0 l/m 2 min 0 min 928 W/m 12,9 km/h (3 Bft) 97,87 %
04.07.2019 13:00 22,9 C 27,8 C 30,6 C 44 % 1024,5 hPa 0,0 l/m 2 min 0 min 939 W/m 6,4 km/h (2 Bft) 97,87 %
04.07.2019 13:02 22,9 C 30,0 C 32,8 C 47 % 1024,5 hPa 0,0 l/m 2 min 0 min 937 W/m 6,4 km/h (2 Bft) 95,74 %
04.07.2019 13:04 23,0 C 28,9 C 31,7 C 45 % 1024,5 hPa 0,0 l/m 2 min 0 min 951 W/m 6,4 km/h (2 Bft) 97,87 %
04.07.2019 13:06 23,1 C 30,0 C 33,3 C 46 % 1024,4 hPa 0,0 l/m 2 min 0 min 953 W/m 6,4 km/h (2 Bft) 95,74 %
04.07.2019 13:08 23,2 C 30,6 C 32,2 C 45 % 1024,4 hPa 0,0 l/m 2 min 0 min 944 W/m 6,4 km/h (2 Bft) 95,65 %
04.07.2019 13:10 23,2 C 30,0 C 32,2 C 45 % 1024,4 hPa 0,0 l/m 2 min 0 min 941 W/m 9,7 km/h (2 Bft) 97,87 %
04.07.2019 13:12 23,3 C 30,6 C 33,3 C 47 % 1024,3 hPa 0,0 l/m 2 min 0 min 957 W/m 6,4 km/h (2 Bft) 97,87 %
04.07.2019 13:14 23,4 C 30,6 C 33,9 C 47 % 1024,4 hPa 0,0 l/m 2 min 0 min 954 W/m 6,4 km/h (2 Bft) 95,74 %
04.07.2019 13:16 23,6 C 30,0 C 33,3 C 46 % 1024,4 hPa 0,0 l/m 2 min 0 min 954 W/m 12,9 km/h (3 Bft) 97,87 %
04.07.2019 13:18 23,6 C 29,4 C 32,8 C 46 % 1024,3 hPa 0,0 l/m 2 min 0 min 962 W/m 9,7 km/h (2 Bft) 93,48 %
04.07.2019 13:20 23,6 C 28,9 C 32,8 C 44 % 1024,3 hPa 0,0 l/m 2 min 0 min 968 W/m 9,7 km/h (2 Bft) 97,87 %
04.07.2019 13:22 23,7 C 28,9 C 32,8 C 45 % 1024,2 hPa 0,0 l/m 2 min 0 min 969 W/m 9,7 km/h (2 Bft) 97,87 %
04.07.2019 13:24 23,7 C 28,9 C 32,8 C 47 % 1024,3 hPa 0,0 l/m 2 min 0 min 969 W/m 9,7 km/h (2 Bft) 100,00 %
04.07.2019 13:26 23,8 C 30,0 C 33,3 C 46 % 1024,2 hPa 0,0 l/m 2 min 0 min 980 W/m 6,4 km/h (2 Bft) 95,74 %
04.07.2019 13:28 23,9 C 30,0 C 33,9 C 44 % 1024,1 hPa 0,0 l/m 2 min 0 min 980 W/m 6,4 km/h (2 Bft) 97,87 %
04.07.2019 13:30 23,9 C 30,0 C 32,8 C 42 % 1024,1 hPa 0,0 l/m 2 min 0 min 963 W/m 6,4 km/h (2 Bft) 95,65 %
04.07.2019 13:32 23,9 C 28,9 C 31,1 C 42 % 1024,1 hPa 0,0 l/m 2 min 0 min 924 W/m 9,7 km/h (2 Bft) 95,74 %
04.07.2019 13:34 23,9 C 28,3 C 31,7 C 43 % 1024,1 hPa 0,0 l/m 2 min 0 min 931 W/m 16,1 km/h (3 Bft) 97,87 %
04.07.2019 13:36 23,9 C 27,8 C 32,2 C 42 % 1024,1 hPa 0,0 l/m 2 min 0 min 914 W/m 12,9 km/h (3 Bft) 97,87 %
04.07.2019 13:38 23,8 C 28,9 C 32,8 C 43 % 1024,1 hPa 0,0 l/m 2 min 0 min 950 W/m 6,4 km/h (2 Bft) 97,87 %
04.07.2019 13:40 23,9 C 28,9 C 33,3 C 46 % 1024,1 hPa 0,0 l/m 2 min 0 min 929 W/m 6,4 km/h (2 Bft) 97,87 %
04.07.2019 13:42 24,0 C 30,0 C 33,9 C 45 % 1024,1 hPa 0,0 l/m 2 min 0 min 919 W/m 3,2 km/h (1 Bft) 95,65 %
04.07.2019 13:44 24,1 C 30,0 C 33,3 C 44 % 1024,0 hPa 0,0 l/m 2 min 0 min 922 W/m 3,2 km/h (1 Bft) 97,87 %
04.07.2019 13:46 24,2 C 30,6 C 34,4 C 44 % 1024,0 hPa 0,0 l/m 2 min 0 min 933 W/m 6,4 km/h (2 Bft) 97,87 %
04.07.2019 13:48 24,3 C 30,6 C 34,4 C 46 % 1024,0 hPa 0,0 l/m 2 min 0 min 944 W/m 9,7 km/h (2 Bft) 97,87 %
04.07.2019 13:50 24,4 C 30,6 C 33,9 C 44 % 1023,9 hPa 0,0 l/m 2 min 0 min 923 W/m 6,4 km/h (2 Bft) 97,87 %
04.07.2019 13:52 24,4 C 30,6 C 33,9 C 44 % 1023,9 hPa 0,0 l/m 2 min 0 min 951 W/m 6,4 km/h (2 Bft) 95,74 %
04.07.2019 13:54 24,6 C 30,0 C 33,3 C 43 % 1023,9 hPa 0,0 l/m 2 min 0 min 971 W/m 6,4 km/h (2 Bft) 97,83 %
04.07.2019 13:56 24,6 C 30,0 C 33,9 C 43 % 1023,8 hPa 0,0 l/m 2 min 0 min 976 W/m 9,7 km/h (2 Bft) 95,74 %
04.07.2019 13:58 24,7 C 31,1 C 34,4 C 45 % 1023,9 hPa 0,0 l/m 2 min 0 min 973 W/m 6,4 km/h (2 Bft) 97,87 %
04.07.2019 14:00 24,9 C 31,7 C 35,6 C 46 % 1023,9 hPa 0,0 l/m 2 min 0 min 970 W/m 6,4 km/h (2 Bft) 97,87 %
04.07.2019 14:02 25,1 C 31,1 C 33,9 C 43 % 1023,8 hPa 0,0 l/m 2 min 0 min 921 W/m 9,7 km/h (2 Bft) 97,87 %
04.07.2019 14:04 25,1 C 30,0 C 33,9 C 42 % 1023,8 hPa 0,0 l/m 2 min 0 min 922 W/m 6,4 km/h (2 Bft) 97,83 %
04.07.2019 14:06 25,1 C 28,9 C 32,2 C 41 % 1023,8 hPa 0,0 l/m 2 min 0 min 959 W/m 12,9 km/h (3 Bft) 97,87 %
04.07.2019 14:08 25,1 C 27,8 C 31,1 C 40 % 1023,8 hPa 0,0 l/m 2 min 0 min 895 W/m 12,9 km/h (3 Bft) 97,87 %
04.07.2019 14:10 25,0 C 27,8 C 31,1 C 40 % 1023,8 hPa 0,0 l/m 2 min 0 min 932 W/m 6,4 km/h (2 Bft) 97,87 %
04.07.2019 14:12 25,0 C 28,9 C 32,8 C 41 % 1023,8 hPa 0,0 l/m 2 min 0 min 938 W/m 9,7 km/h (2 Bft) 95,74 %
04.07.2019 14:14 25,1 C 30,0 C 33,3 C 45 % 1023,8 hPa 0,0 l/m 2 min 0 min 944 W/m 6,4 km/h (2 Bft) 97,87 %
04.07.2019 14:16 24,9 C 28,9 C 32,8 C 41 % 1023,7 hPa 0,0 l/m 2 min 0 min 963 W/m 6,4 km/h (2 Bft) 97,83 %
04.07.2019 14:18 24,9 C 29,4 C 32,8 C 41 % 1023,7 hPa 0,0 l/m 2 min 0 min 958 W/m 6,4 km/h (2 Bft) 97,87 %
04.07.2019 14:20 24,9 C 28,9 C 32,8 C 40 % 1023,7 hPa 0,0 l/m 2 min 0 min 962 W/m 9,7 km/h (2 Bft) 95,74 %
04.07.2019 14:22 24,9 C 30,0 C 34,4 C 45 % 1023,6 hPa 0,0 l/m 2 min 0 min 965 W/m 9,7 km/h (2 Bft) 97,87 %
04.07.2019 14:24 25,0 C 30,6 C 35,0 C 43 % 1023,5 hPa 0,0 l/m 2 min 0 min 967 W/m 9,7 km/h (2 Bft) 97,87 %
04.07.2019 14:26 25,1 C 30,6 C 34,4 C 41 % 1023,5 hPa 0,0 l/m 2 min 0 min 962 W/m 6,4 km/h (2 Bft) 95,74 %
04.07.2019 14:28 25,1 C 29,4 C 33,9 C 41 % 1023,4 hPa 0,0 l/m 2 min 0 min 949 W/m 12,9 km/h (3 Bft) 95,65 %
04.07.2019 14:30 25,1 C 28,9 C 33,3 C 41 % 1023,4 hPa 0,0 l/m 2 min 0 min 960 W/m 9,7 km/h (2 Bft) 97,87 %
04.07.2019 14:32 25,1 C 30,0 C 33,9 C 41 % 1023,3 hPa 0,0 l/m 2 min 0 min 968 W/m 9,7 km/h (2 Bft) 97,87 %
04.07.2019 14:34 25,2 C 29,4 C 33,9 C 42 % 1023,4 hPa 0,0 l/m 2 min 0 min 940 W/m 9,7 km/h (2 Bft) 95,74 %
04.07.2019 14:36 25,2 C 28,9 C 33,3 C 42 % 1023,4 hPa 0,0 l/m 2 min 0 min 943 W/m 6,4 km/h (2 Bft) 95,74 %
04.07.2019 14:38 25,3 C 29,4 C 33,3 C 42 % 1023,3 hPa 0,0 l/m 2 min 0 min 921 W/m 9,7 km/h (2 Bft) 97,87 %
04.07.2019 14:40 25,3 C 30,0 C 33,9 C 43 % 1023,4 hPa 0,0 l/m 2 min 0 min 931 W/m 6,4 km/h (2 Bft) 97,83 %
04.07.2019 14:42 25,4 C 29,4 C 33,9 C 43 % 1023,4 hPa 0,0 l/m 2 min 0 min 921 W/m 9,7 km/h (2 Bft) 97,87 %
04.07.2019 14:44 25,4 C 29,4 C 32,2 C 42 % 1023,3 hPa 0,0 l/m 2 min 0 min 910 W/m 9,7 km/h (2 Bft) 97,87 %
04.07.2019 14:47 25,5 C 29,4 C 30,6 C 42 % 1023,3 hPa 0,0 l/m 3 min 0 min 912 W/m 9,7 km/h (2 Bft) 97,56 %
04.07.2019 14:48 25,5 C 28,9 C 30,0 C 41 % 1023,3 hPa 0,0 l/m 1 min 0 min 932 W/m 6,4 km/h (2 Bft) 100,00 %
04.07.2019 14:50 25,4 C 27,8 C 28,3 C 40 % 1023,3 hPa 0,0 l/m 2 min 0 min 933 W/m 9,7 km/h (2 Bft) 97,83 %
04.07.2019 14:52 25,4 C 28,3 C 28,9 C 40 % 1023,3 hPa 0,0 l/m 2 min 0 min 936 W/m 9,7 km/h (2 Bft) 95,74 %
04.07.2019 14:54 25,4 C 28,9 C 30,6 C 41 % 1023,2 hPa 0,0 l/m 2 min 0 min 920 W/m 9,7 km/h (2 Bft) 93,62 %
04.07.2019 14:56 25,3 C 28,3 C 30,0 C 39 % 1023,2 hPa 0,0 l/m 2 min 0 min 920 W/m 12,9 km/h (3 Bft) 97,87 %
04.07.2019 14:58 25,3 C 28,3 C 28,9 C 40 % 1023,2 hPa 0,0 l/m 2 min 0 min 933 W/m 9,7 km/h (2 Bft) 97,87 %
04.07.2019 15:02 25,2 C 28,3 C 26,7 C 41 % 1023,2 hPa 0,0 l/m 4 min 0 min 919 W/m 9,7 km/h (2 Bft) 98,11 %
04.07.2019 15:04 25,2 C 28,9 C 26,7 C 42 % 1023,2 hPa 0,0 l/m 2 min 0 min 908 W/m 16,1 km/h (3 Bft) 97,87 %
04.07.2019 15:06 25,3 C 29,4 C 26,7 C 42 % 1023,0 hPa 0,0 l/m 2 min 0 min 911 W/m 16,1 km/h (3 Bft) 100,00 %
04.07.2019 15:08 25,4 C 30,6 C 26,1 C 43 % 1023,1 hPa 0,0 l/m 2 min 0 min 900 W/m 12,9 km/h (3 Bft) 95,65 %
04.07.2019 15:10 25,4 C 28,3 C 26,1 C 41 % 1023,1 hPa 0,0 l/m 2 min 0 min 906 W/m 16,1 km/h (3 Bft) 100,00 %
04.07.2019 15:12 25,4 C 29,4 C 25,6 C 41 % 1023,1 hPa 0,0 l/m 2 min 0 min 902 W/m 9,7 km/h (2 Bft) 100,00 %
04.07.2019 15:14 25,5 C 29,4 C 25,6 C 40 % 1023,0 hPa 0,0 l/m 2 min 0 min 869 W/m 12,9 km/h (3 Bft) 100,00 %
04.07.2019 15:16 25,5 C 29,4 C 25,6 C 40 % 1023,0 hPa 0,0 l/m 2 min 0 min 905 W/m 6,4 km/h (2 Bft) 100,00 %
04.07.2019 15:18 25,5 C 28,3 C 25,6 C 41 % 1022,9 hPa 0,0 l/m 2 min 0 min 914 W/m 6,4 km/h (2 Bft) 100,00 %
04.07.2019 15:20 25,5 C 28,9 C 25,6 C 41 % 1022,9 hPa 0,0 l/m 2 min 0 min 927 W/m 16,1 km/h (3 Bft) 100,00 %
04.07.2019 15:22 25,6 C 28,3 C 26,1 C 41 % 1022,9 hPa 0,0 l/m 2 min 0 min 861 W/m 6,4 km/h (2 Bft) 97,87 %
04.07.2019 15:24 25,6 C 27,2 C 25,6 C 39 % 1022,8 hPa 0,0 l/m 2 min 0 min 757 W/m 9,7 km/h (2 Bft) 97,87 %
04.07.2019 15:26 25,6 C 27,8 C 26,1 C 41 % 1022,9 hPa 0,0 l/m 2 min 0 min 802 W/m 6,4 km/h (2 Bft) 97,87 %
04.07.2019 15:28 25,7 C 27,8 C 26,1 C 41 % 1022,8 hPa 0,0 l/m 2 min 0 min 690 W/m 9,7 km/h (2 Bft) 97,87 %
04.07.2019 15:30 25,7 C 27,2 C 26,1 C 42 % 1022,8 hPa 0,0 l/m 2 min 0 min 597 W/m 6,4 km/h (2 Bft) 97,87 %
04.07.2019 15:32 25,7 C 26,7 C 26,1 C 43 % 1022,8 hPa 0,0 l/m 2 min 0 min 487 W/m 6,4 km/h (2 Bft) 97,83 %
04.07.2019 15:34 25,7 C 26,7 C 25,6 C 43 % 1022,8 hPa 0,0 l/m 2 min 0 min 564 W/m 6,4 km/h (2 Bft) 100,00 %
04.07.2019 15:36 25,6 C 26,7 C 25,6 C 41 % 1022,8 hPa 0,0 l/m 2 min 0 min 641 W/m 6,4 km/h (2 Bft) 100,00 %
04.07.2019 15:38 25,5 C 26,7 C 25,6 C 40 % 1022,8 hPa 0,0 l/m 2 min 0 min 748 W/m 6,4 km/h (2 Bft) 100,00 %
04.07.2019 15:40 25,5 C 27,2 C 25,6 C 39 % 1022,7 hPa 0,0 l/m 2 min 0 min 856 W/m 6,4 km/h (2 Bft) 97,87 %
04.07.2019 15:42 25,5 C 27,2 C 26,1 C 40 % 1022,6 hPa 0,0 l/m 2 min 0 min 850 W/m 9,7 km/h (2 Bft) 97,83 %
04.07.2019 15:44 25,5 C 27,8 C 26,7 C 42 % 1022,6 hPa 0,0 l/m 2 min 0 min 874 W/m 6,4 km/h (2 Bft) 100,00 %
04.07.2019 15:46 25,6 C 27,8 C 26,1 C 41 % 1022,6 hPa 0,0 l/m 2 min 0 min 892 W/m 3,2 km/h (1 Bft) 97,87 %
04.07.2019 15:48 25,6 C 27,2 C 25,6 C 39 % 1022,6 hPa 0,0 l/m 2 min 0 min 874 W/m 9,7 km/h (2 Bft) 97,87 %
04.07.2019 15:50 25,6 C 27,2 C 25,0 C 39 % 1022,6 hPa 0,0 l/m 2 min 0 min 857 W/m 12,9 km/h (3 Bft) 97,87 %
04.07.2019 15:52 25,6 C 25,0 C 24,4 C 38 % 1022,5 hPa 0,0 l/m 2 min 0 min 747 W/m 16,1 km/h (3 Bft) 97,87 %
04.07.2019 15:54 25,4 C 23,9 C 23,9 C 38 % 1022,5 hPa 0,0 l/m 2 min 0 min 772 W/m 16,1 km/h (3 Bft) 95,65 %
04.07.2019 15:56 25,1 C 24,4 C 23,9 C 39 % 1022,6 hPa 0,0 l/m 2 min 0 min 838 W/m 9,7 km/h (2 Bft) 97,87 %
04.07.2019 15:58 25,1 C 24,4 C 24,4 C 38 % 1022,5 hPa 0,0 l/m 2 min 0 min 852 W/m 9,7 km/h (2 Bft) 97,87 %
04.07.2019 16:00 24,8 C 24,4 C 23,9 C 38 % 1022,5 hPa 0,0 l/m 2 min 0 min 841 W/m 16,1 km/h (3 Bft) 95,74 %
04.07.2019 16:02 24,7 C 25,0 C 23,9 C 39 % 1022,4 hPa 0,0 l/m 2 min 0 min 836 W/m 16,1 km/h (3 Bft) 97,87 %
04.07.2019 16:04 24,6 C 24,4 C 23,3 C 39 % 1022,4 hPa 0,0 l/m 2 min 0 min 820 W/m 12,9 km/h (3 Bft) 97,87 %
04.07.2019 16:06 24,6 C 25,0 C 23,9 C 40 % 1022,4 hPa 0,0 l/m 2 min 0 min 823 W/m 6,4 km/h (2 Bft) 97,83 %
04.07.2019 16:08 24,6 C 25,0 C 23,9 C 40 % 1022,4 hPa 0,0 l/m 2 min 0 min 819 W/m 9,7 km/h (2 Bft) 95,74 %
04.07.2019 16:10 24,6 C 25,0 C 23,9 C 39 % 1022,2 hPa 0,0 l/m 2 min 0 min 816 W/m 6,4 km/h (2 Bft) 95,74 %
04.07.2019 16:12 24,6 C 25,0 C 24,4 C 40 % 1022,2 hPa 0,0 l/m 2 min 0 min 814 W/m 9,7 km/h (2 Bft) 95,74 %
04.07.2019 16:14 24,7 C 25,0 C 24,4 C 41 % 1022,3 hPa 0,0 l/m 2 min 0 min 811 W/m 6,4 km/h (2 Bft) 97,87 %
04.07.2019 16:16 24,7 C 25,6 C 25,0 C 40 % 1022,3 hPa 0,0 l/m 2 min 0 min 813 W/m 6,4 km/h (2 Bft) 97,87 %
04.07.2019 16:18 24,7 C 26,1 C 25,6 C 40 % 1022,2 hPa 0,0 l/m 2 min 0 min 796 W/m 6,4 km/h (2 Bft) 97,83 %
04.07.2019 16:20 24,8 C 25,6 C 25,6 C 40 % 1022,2 hPa 0,0 l/m 2 min 0 min 774 W/m 9,7 km/h (2 Bft) 97,87 %
04.07.2019 16:22 24,9 C 25,0 C 25,6 C 41 % 1022,2 hPa 0,0 l/m 2 min 0 min 765 W/m 9,7 km/h (2 Bft) 95,74 %
04.07.2019 16:24 25,1 C 25,6 C 26,1 C 42 % 1022,2 hPa 0,0 l/m 2 min 0 min 748 W/m 6,4 km/h (2 Bft) 97,87 %
04.07.2019 16:26 25,2 C 25,6 C 26,7 C 40 % 1022,2 hPa 0,0 l/m 2 min 0 min 679 W/m 9,7 km/h (2 Bft) 93,62 %
04.07.2019 16:28 25,3 C 25,6 C 27,2 C 40 % 1022,2 hPa 0,0 l/m 2 min 0 min 652 W/m 6,4 km/h (2 Bft) 93,62 %
04.07.2019 16:30 25,4 C 25,6 C 27,8 C 41 % 1022,2 hPa 0,0 l/m 2 min 0 min 693 W/m 3,2 km/h (1 Bft) 95,65 %
04.07.2019 16:32 25,6 C 24,4 C 26,7 C 37 % 1022,2 hPa 0,0 l/m 2 min 0 min 662 W/m 6,4 km/h (2 Bft) 97,87 %
04.07.2019 16:34 25,6 C 24,4 C 26,7 C 38 % 1022,1 hPa 0,0 l/m 2 min 0 min 641 W/m 9,7 km/h (2 Bft) 97,87 %
04.07.2019 16:36 25,6 C 24,4 C 26,7 C 38 % 1022,1 hPa 0,0 l/m 2 min 0 min 705 W/m 6,4 km/h (2 Bft) 97,87 %
04.07.2019 16:38 25,6 C 25,0 C 27,8 C 39 % 1022,1 hPa 0,0 l/m 2 min 0 min 727 W/m 6,4 km/h (2 Bft) 100,00 %
04.07.2019 16:40 25,7 C 25,0 C 27,8 C 38 % 1022,1 hPa 0,0 l/m 2 min 0 min 774 W/m 6,4 km/h (2 Bft) 100,00 %
04.07.2019 16:42 25,7 C 25,0 C 27,2 C 38 % 1022,1 hPa 0,0 l/m 2 min 0 min 768 W/m 9,7 km/h (2 Bft) 100,00 %
04.07.2019 16:44 25,7 C 25,0 C 26,1 C 37 % 1022,1 hPa 0,0 l/m 2 min 0 min 699 W/m 16,1 km/h (3 Bft) 100,00 %
04.07.2019 16:46 25,7 C 25,0 C 26,1 C 37 % 1022,0 hPa 0,0 l/m 2 min 0 min 680 W/m 6,4 km/h (2 Bft) 100,00 %
04.07.2019 16:48 25,8 C 25,0 C 25,6 C 38 % 1022,0 hPa 0,0 l/m 2 min 0 min 699 W/m 9,7 km/h (2 Bft) 97,87 %
04.07.2019 16:50 25,8 C 25,0 C 25,6 C 39 % 1022,0 hPa 0,0 l/m 2 min 0 min 705 W/m 6,4 km/h (2 Bft) 97,87 %
04.07.2019 16:52 25,8 C 25,0 C 25,6 C 39 % 1022,0 hPa 0,0 l/m 2 min 0 min 686 W/m 9,7 km/h (2 Bft) 97,83 %
04.07.2019 16:54 25,8 C 24,4 C 25,6 C 38 % 1022,0 hPa 0,0 l/m 2 min 0 min 716 W/m 9,7 km/h (2 Bft) 97,87 %
04.07.2019 16:56 25,8 C 25,0 C 26,1 C 40 % 1021,9 hPa 0,0 l/m 2 min 0 min 712 W/m 6,4 km/h (2 Bft) 97,87 %
04.07.2019 16:58 25,8 C 24,4 C 26,1 C 39 % 1021,9 hPa 0,0 l/m 2 min 0 min 679 W/m 9,7 km/h (2 Bft) 97,87 %
04.07.2019 17:00 25,8 C 24,4 C 25,0 C 37 % 1021,9 hPa 0,0 l/m 2 min 0 min 692 W/m 6,4 km/h (2 Bft) 95,74 %
04.07.2019 17:02 25,8 C 25,0 C 25,6 C 38 % 1021,9 hPa 0,0 l/m 2 min 0 min 708 W/m 6,4 km/h (2 Bft) 95,74 %
04.07.2019 17:04 25,8 C 25,6 C 25,6 C 40 % 1021,9 hPa 0,0 l/m 2 min 0 min 680 W/m 9,7 km/h (2 Bft) 93,48 %
04.07.2019 17:06 25,9 C 25,6 C 25,6 C 40 % 1021,8 hPa 0,0 l/m 2 min 0 min 685 W/m 9,7 km/h (2 Bft) 95,74 %
04.07.2019 17:08 25,9 C 25,6 C 25,0 C 38 % 1021,9 hPa 0,0 l/m 2 min 0 min 634 W/m 19,3 km/h (3 Bft) 93,62 %
04.07.2019 17:10 26,0 C 26,1 C 25,6 C 40 % 1021,7 hPa 0,0 l/m 2 min 0 min 651 W/m 3,2 km/h (1 Bft) 95,74 %
04.07.2019 17:12 26,2 C 26,1 C 26,1 C 42 % 1021,7 hPa 0,0 l/m 2 min 0 min 647 W/m 3,2 km/h (1 Bft) 95,74 %
04.07.2019 17:14 26,3 C 26,7 C 26,7 C 42 % 1021,6 hPa 0,0 l/m 2 min 0 min 636 W/m 9,7 km/h (2 Bft) 95,74 %
04.07.2019 17:16 26,4 C 26,7 C 27,2 C 42 % 1021,6 hPa 0,0 l/m 2 min 0 min 636 W/m 3,2 km/h (1 Bft) 95,65 %
04.07.2019 17:18 26,6 C 27,2 C 27,2 C 40 % 1021,6 hPa 0,0 l/m 2 min 0 min 618 W/m 6,4 km/h (2 Bft) 95,74 %
04.07.2019 17:20 26,7 C 26,7 C 27,2 C 41 % 1021,6 hPa 0,0 l/m 2 min 0 min 600 W/m 9,7 km/h (2 Bft) 95,74 %
04.07.2019 17:22 26,8 C 26,7 C 26,7 C 40 % 1021,5 hPa 0,0 l/m 2 min 0 min 594 W/m 6,4 km/h (2 Bft) 95,74 %
04.07.2019 17:24 26,8 C 26,1 C 26,7 C 39 % 1021,5 hPa 0,0 l/m 2 min 0 min 569 W/m 3,2 km/h (1 Bft) 93,62 %
04.07.2019 17:26 26,8 C 26,7 C 26,7 C 40 % 1021,5 hPa 0,0 l/m 2 min 0 min 554 W/m 9,7 km/h (2 Bft) 95,65 %
04.07.2019 17:28 26,9 C 26,1 C 26,1 C 38 % 1021,5 hPa 0,0 l/m 2 min 0 min 566 W/m 6,4 km/h (2 Bft) 95,74 %
04.07.2019 17:30 26,9 C 26,7 C 25,6 C 39 % 1021,4 hPa 0,0 l/m 2 min 0 min 532 W/m 6,4 km/h (2 Bft) 95,74 %
04.07.2019 17:32 26,9 C 26,1 C 25,6 C 38 % 1021,5 hPa 0,0 l/m 2 min 0 min 503 W/m 9,7 km/h (2 Bft) 95,74 %
04.07.2019 17:34 26,9 C 26,1 C 25,6 C 40 % 1021,4 hPa 0,0 l/m 2 min 0 min 503 W/m 6,4 km/h (2 Bft) 95,74 %
04.07.2019 17:36 27,0 C 26,1 C 25,6 C 39 % 1021,4 hPa 0,0 l/m 2 min 0 min 512 W/m 9,7 km/h (2 Bft) 93,62 %
04.07.2019 17:38 26,9 C 26,1 C 25,0 C 38 % 1021,4 hPa 0,0 l/m 2 min 0 min 528 W/m 6,4 km/h (2 Bft) 95,74 %
04.07.2019 17:40 26,9 C 25,6 C 25,6 C 40 % 1021,5 hPa 0,0 l/m 2 min 0 min 509 W/m 6,4 km/h (2 Bft) 97,83 %
04.07.2019 17:42 26,9 C 26,1 C 25,6 C 40 % 1021,4 hPa 0,0 l/m 2 min 0 min 538 W/m 6,4 km/h (2 Bft) 97,87 %
04.07.2019 17:44 26,9 C 26,1 C 25,6 C 40 % 1021,5 hPa 0,0 l/m 2 min 0 min 536 W/m 9,7 km/h (2 Bft) 97,87 %
04.07.2019 17:46 26,9 C 26,1 C 25,6 C 40 % 1021,4 hPa 0,0 l/m 2 min 0 min 562 W/m 9,7 km/h (2 Bft) 95,74 %
04.07.2019 17:48 26,9 C 26,1 C 25,6 C 40 % 1021,4 hPa 0,0 l/m 2 min 0 min 534 W/m 9,7 km/h (2 Bft) 100,00 %
04.07.2019 17:50 26,9 C 26,1 C 25,0 C 39 % 1021,4 hPa 0,0 l/m 2 min 0 min 532 W/m 6,4 km/h (2 Bft) 100,00 %
04.07.2019 17:52 26,9 C 26,1 C 25,0 C 39 % 1021,4 hPa 0,0 l/m 2 min 0 min 536 W/m 9,7 km/h (2 Bft) 97,83 %
04.07.2019 17:54 26,9 C 26,1 C 25,0 C 40 % 1021,4 hPa 0,0 l/m 2 min 0 min 508 W/m 9,7 km/h (2 Bft) 97,87 %
04.07.2019 17:56 26,9 C 26,1 C 25,6 C 40 % 1021,4 hPa 0,0 l/m 2 min 0 min 539 W/m 3,2 km/h (1 Bft) 100,00 %
04.07.2019 17:58 26,9 C 26,1 C 25,6 C 41 % 1021,2 hPa 0,0 l/m 2 min 0 min 549 W/m 9,7 km/h (2 Bft) 100,00 %
04.07.2019 18:00 26,8 C 26,1 C 26,7 C 43 % 1021,2 hPa 0,0 l/m 2 min 0 min 577 W/m 6,4 km/h (2 Bft) 97,87 %
04.07.2019 18:02 26,8 C 26,1 C 27,2 C 40 % 1021,3 hPa 0,0 l/m 2 min 0 min 561 W/m 9,7 km/h (2 Bft) 100,00 %
04.07.2019 18:04 26,8 C 26,1 C 27,2 C 41 % 1021,2 hPa 0,0 l/m 2 min 0 min 529 W/m 3,2 km/h (1 Bft) 100,00 %
04.07.2019 18:08 26,9 C 26,1 C 27,2 C 41 % 1021,1 hPa 0,0 l/m 4 min 0 min 524 W/m 12,9 km/h (3 Bft) 100,00 %
04.07.2019 18:10 26,9 C 26,1 C 27,8 C 42 % 1021,1 hPa 0,0 l/m 2 min 0 min 530 W/m 9,7 km/h (2 Bft) 97,87 %
04.07.2019 18:12 26,9 C 26,1 C 27,2 C 41 % 1021,1 hPa 0,0 l/m 2 min 0 min 527 W/m 9,7 km/h (2 Bft) 100,00 %
04.07.2019 18:14 26,9 C 26,1 C 26,1 C 42 % 1021,0 hPa 0,0 l/m 2 min 0 min 499 W/m 6,4 km/h (2 Bft) 100,00 %
04.07.2019 18:16 26,9 C 26,1 C 25,6 C 43 % 1021,1 hPa 0,0 l/m 2 min 0 min 493 W/m 6,4 km/h (2 Bft) 97,87 %
04.07.2019 18:18 26,7 C 25,0 C 25,0 C 39 % 1021,0 hPa 0,0 l/m 2 min 0 min 465 W/m 6,4 km/h (2 Bft) 97,87 %
04.07.2019 18:20 26,6 C 25,0 C 24,4 C 44 % 1020,9 hPa 0,0 l/m 2 min 0 min 438 W/m 6,4 km/h (2 Bft) 100,00 %
04.07.2019 18:22 26,6 C 25,0 C 24,4 C 42 % 1020,9 hPa 0,0 l/m 2 min 0 min 460 W/m 12,9 km/h (3 Bft) 100,00 %
04.07.2019 18:24 26,5 C 25,6 C 25,0 C 42 % 1020,9 hPa 0,0 l/m 2 min 0 min 491 W/m 16,1 km/h (3 Bft) 100,00 %
04.07.2019 18:26 26,5 C 25,6 C 25,0 C 42 % 1020,8 hPa 0,0 l/m 2 min 0 min 487 W/m 9,7 km/h (2 Bft) 100,00 %
04.07.2019 18:28 26,6 C 25,6 C 25,0 C 44 % 1020,8 hPa 0,0 l/m 2 min 0 min 480 W/m 6,4 km/h (2 Bft) 97,87 %
04.07.2019 18:30 26,6 C 25,0 C 24,4 C 43 % 1020,8 hPa 0,0 l/m 2 min 0 min 469 W/m 3,2 km/h (1 Bft) 100,00 %
04.07.2019 18:32 26,5 C 25,0 C 24,4 C 42 % 1020,8 hPa 0,0 l/m 2 min 0 min 456 W/m 6,4 km/h (2 Bft) 100,00 %
04.07.2019 18:34 26,5 C 25,0 C 23,9 C 42 % 1020,8 hPa 0,0 l/m 2 min 0 min 418 W/m 6,4 km/h (2 Bft) 100,00 %
04.07.2019 18:36 26,5 C 25,6 C 23,9 C 42 % 1020,8 hPa 0,0 l/m 2 min 0 min 362 W/m 16,1 km/h (3 Bft) 95,74 %
04.07.2019 18:38 26,4 C 25,6 C 24,4 C 42 % 1020,8 hPa 0,0 l/m 2 min 0 min 424 W/m 6,4 km/h (2 Bft) 97,83 %
04.07.2019 18:40 26,4 C 25,0 C 24,4 C 41 % 1020,8 hPa 0,0 l/m 2 min 0 min 431 W/m 9,7 km/h (2 Bft) 100,00 %
04.07.2019 18:42 26,3 C 25,0 C 23,9 C 43 % 1020,8 hPa 0,0 l/m 2 min 0 min 409 W/m 6,4 km/h (2 Bft) 100,00 %
04.07.2019 18:44 26,3 C 24,4 C 23,9 C 44 % 1020,7 hPa 0,0 l/m 2 min 0 min 362 W/m 6,4 km/h (2 Bft) 100,00 %
04.07.2019 18:46 26,2 C 25,0 C 23,9 C 45 % 1020,7 hPa 0,0 l/m 2 min 0 min 364 W/m 3,2 km/h (1 Bft) 95,74 %
04.07.2019 18:48 26,2 C 25,0 C 23,9 C 45 % 1020,8 hPa 0,0 l/m 2 min 0 min 350 W/m 6,4 km/h (2 Bft) 97,83 %
04.07.2019 18:50 26,1 C 24,4 C 23,9 C 45 % 1020,7 hPa 0,0 l/m 2 min 0 min 324 W/m 6,4 km/h (2 Bft) 97,87 %
04.07.2019 18:52 26,1 C 24,4 C 24,4 C 42 % 1020,6 hPa 0,0 l/m 2 min 0 min 328 W/m 9,7 km/h (2 Bft) 97,87 %
04.07.2019 18:54 26,1 C 24,4 C 25,0 C 46 % 1020,7 hPa 0,0 l/m 2 min 0 min 360 W/m 6,4 km/h (2 Bft) 97,87 %
04.07.2019 18:56 26,1 C 25,0 C 25,0 C 45 % 1020,6 hPa 0,0 l/m 2 min 0 min 326 W/m 3,2 km/h (1 Bft) 97,87 %
04.07.2019 18:58 26,0 C 24,4 C 24,4 C 44 % 1020,6 hPa 0,0 l/m 2 min 0 min 262 W/m 9,7 km/h (2 Bft) 97,87 %
04.07.2019 19:00 25,9 C 24,4 C 23,9 C 42 % 1020,6 hPa 0,0 l/m 2 min 0 min 273 W/m 9,7 km/h (2 Bft) 97,83 %
04.07.2019 19:02 25,8 C 24,4 C 23,9 C 44 % 1020,6 hPa 0,0 l/m 2 min 0 min 247 W/m 6,4 km/h (2 Bft) 93,62 %
04.07.2019 19:04 25,8 C 24,4 C 23,3 C 43 % 1020,6 hPa 0,0 l/m 2 min 0 min 226 W/m 9,7 km/h (2 Bft) 97,87 %
04.07.2019 19:06 25,7 C 23,9 C 23,3 C 42 % 1020,6 hPa 0,0 l/m 2 min 0 min 208 W/m 16,1 km/h (3 Bft) 97,87 %
04.07.2019 19:08 25,7 C 23,9 C 23,3 C 43 % 1020,6 hPa 0,0 l/m 2 min 0 min 218 W/m 6,4 km/h (2 Bft) 97,87 %
04.07.2019 19:10 25,6 C 23,9 C 23,3 C 44 % 1020,6 hPa 0,0 l/m 2 min 0 min 232 W/m 6,4 km/h (2 Bft) 97,87 %
04.07.2019 19:12 25,4 C 23,9 C 23,3 C 44 % 1020,6 hPa 0,0 l/m 2 min 0 min 261 W/m 6,4 km/h (2 Bft) 93,48 %
04.07.2019 19:14 25,4 C 23,9 C 23,3 C 45 % 1020,5 hPa 0,0 l/m 2 min 0 min 225 W/m 6,4 km/h (2 Bft) 97,87 %
04.07.2019 19:16 25,3 C 23,9 C 23,3 C 46 % 1020,5 hPa 0,0 l/m 2 min 0 min 254 W/m 6,4 km/h (2 Bft) 95,74 %
04.07.2019 19:18 25,3 C 23,9 C 22,8 C 45 % 1020,4 hPa 0,0 l/m 2 min 0 min 268 W/m 6,4 km/h (2 Bft) 97,87 %
04.07.2019 19:20 25,2 C 23,9 C 22,8 C 44 % 1020,5 hPa 0,0 l/m 2 min 0 min 269 W/m 12,9 km/h (3 Bft) 97,87 %
04.07.2019 19:22 25,2 C 24,4 C 22,8 C 44 % 1020,5 hPa 0,0 l/m 2 min 0 min 269 W/m 9,7 km/h (2 Bft) 97,87 %
04.07.2019 19:24 25,1 C 23,9 C 22,8 C 45 % 1020,5 hPa 0,0 l/m 2 min 0 min 264 W/m 6,4 km/h (2 Bft) 95,65 %
04.07.2019 19:26 25,1 C 23,9 C 22,8 C 45 % 1020,5 hPa 0,0 l/m 2 min 0 min 211 W/m 6,4 km/h (2 Bft) 95,74 %
04.07.2019 19:28 25,1 C 23,9 C 22,8 C 44 % 1020,5 hPa 0,0 l/m 2 min 0 min 201 W/m 12,9 km/h (3 Bft) 97,87 %
04.07.2019 19:30 25,0 C 23,9 C 22,8 C 45 % 1020,4 hPa 0,0 l/m 2 min 0 min 197 W/m 6,4 km/h (2 Bft) 95,74 %
04.07.2019 19:32 25,0 C 23,3 C 22,8 C 46 % 1020,4 hPa 0,0 l/m 0 min 0 min 138 W/m 9,7 km/h (2 Bft) 95,74 %
04.07.2019 19:34 24,9 C 23,3 C 22,8 C 44 % 1020,3 hPa 0,0 l/m 0 min 0 min 113 W/m 9,7 km/h (2 Bft) 95,74 %
04.07.2019 19:36 24,9 C 23,3 C 22,8 C 44 % 1020,3 hPa 0,0 l/m 0 min 0 min 107 W/m 6,4 km/h (2 Bft) 93,48 %
04.07.2019 19:38 24,9 C 23,3 C 22,2 C 47 % 1020,3 hPa 0,0 l/m 0 min 0 min 104 W/m 3,2 km/h (1 Bft) 95,74 %
04.07.2019 19:40 24,8 C 23,3 C 22,2 C 46 % 1020,3 hPa 0,0 l/m 0 min 0 min 104 W/m 3,2 km/h (1 Bft) 95,74 %
04.07.2019 19:42 24,7 C 22,8 C 22,2 C 47 % 1020,3 hPa 0,0 l/m 0 min 0 min 106 W/m 6,4 km/h (2 Bft) 95,74 %
04.07.2019 19:44 24,7 C 22,8 C 22,2 C 46 % 1020,3 hPa 0,0 l/m 0 min 0 min 131 W/m 6,4 km/h (2 Bft) 91,49 %
04.07.2019 19:46 24,6 C 22,8 C 22,2 C 47 % 1020,2 hPa 0,0 l/m 0 min 0 min 132 W/m 3,2 km/h (1 Bft) 97,83 %
04.07.2019 19:48 24,5 C 22,8 C 22,2 C 47 % 1020,2 hPa 0,0 l/m 0 min 0 min 124 W/m 6,4 km/h (2 Bft) 97,87 %
04.07.2019 19:50 24,4 C 22,8 C 22,2 C 46 % 1020,1 hPa 0,0 l/m 0 min 0 min 118 W/m 6,4 km/h (2 Bft) 97,87 %
04.07.2019 19:52 24,4 C 22,8 C 21,7 C 47 % 1020,2 hPa 0,0 l/m 0 min 0 min 111 W/m 3,2 km/h (1 Bft) 97,87 %
04.07.2019 19:54 24,3 C 22,8 C 21,7 C 47 % 1020,1 hPa 0,0 l/m 0 min 0 min 110 W/m 3,2 km/h (1 Bft) 97,87 %
04.07.2019 19:56 24,2 C 22,8 C 21,7 C 48 % 1020,1 hPa 0,0 l/m 0 min 0 min 109 W/m 6,4 km/h (2 Bft) 97,87 %
04.07.2019 19:58 24,1 C 22,2 C 21,7 C 48 % 1020,1 hPa 0,0 l/m 0 min 0 min 105 W/m 6,4 km/h (2 Bft) 97,83 %
04.07.2019 20:00 24,0 C 22,2 C 21,7 C 49 % 1020,1 hPa 0,0 l/m 0 min 0 min 103 W/m 6,4 km/h (2 Bft) 97,87 %
04.07.2019 20:02 23,9 C 22,2 C 21,7 C 48 % 1020,1 hPa 0,0 l/m 0 min 0 min 98 W/m 6,4 km/h (2 Bft) 95,74 %
04.07.2019 20:04 23,9 C 22,2 C 21,7 C 49 % 1020,1 hPa 0,0 l/m 0 min 0 min 97 W/m 9,7 km/h (2 Bft) 97,87 %
04.07.2019 20:06 23,8 C 22,2 C 21,7 C 49 % 1020,1 hPa 0,0 l/m 0 min 0 min 96 W/m 9,7 km/h (2 Bft) 97,87 %
04.07.2019 20:08 23,8 C 22,2 C 21,7 C 49 % 1020,1 hPa 0,0 l/m 0 min 0 min 92 W/m 6,4 km/h (2 Bft) 97,87 %
04.07.2019 20:10 23,7 C 22,2 C 21,7 C 49 % 1020,2 hPa 0,0 l/m 0 min 0 min 91 W/m 6,4 km/h (2 Bft) 97,83 %
04.07.2019 20:12 23,7 C 22,2 C 21,7 C 50 % 1020,1 hPa 0,0 l/m 0 min 0 min 90 W/m 6,4 km/h (2 Bft) 100,00 %
04.07.2019 20:14 23,6 C 22,2 C 21,7 C 50 % 1020,1 hPa 0,0 l/m 0 min 0 min 84 W/m 3,2 km/h (1 Bft) 95,74 %
04.07.2019 20:16 23,6 C 22,2 C 21,7 C 51 % 1020,2 hPa 0,0 l/m 0 min 0 min 83 W/m 6,4 km/h (2 Bft) 97,87 %
04.07.2019 20:18 23,5 C 21,7 C 21,7 C 51 % 1020,2 hPa 0,0 l/m 0 min 0 min 79 W/m 6,4 km/h (2 Bft) 97,87 %
04.07.2019 20:20 23,4 C 21,7 C 21,7 C 50 % 1020,1 hPa 0,0 l/m 0 min 0 min 78 W/m 9,7 km/h (2 Bft) 97,14 %
04.07.2019 20:22 23,4 C 21,7 C 21,1 C 51 % 1020,1 hPa 0,0 l/m 0 min 0 min 72 W/m 6,4 km/h (2 Bft) 96,72 %
04.07.2019 20:24 23,4 C 21,7 C 21,1 C 51 % 1020,1 hPa 0,0 l/m 0 min 0 min 68 W/m 3,2 km/h (1 Bft) 97,87 %
04.07.2019 20:26 23,3 C 21,7 C 21,1 C 52 % 1020,1 hPa 0,0 l/m 0 min 0 min 64 W/m 3,2 km/h (1 Bft) 97,87 %
04.07.2019 20:28 23,3 C 21,7 C 21,1 C 51 % 1020,1 hPa 0,0 l/m 0 min 0 min 61 W/m 3,2 km/h (1 Bft) 97,87 %
04.07.2019 20:30 23,2 C 21,7 C 21,1 C 51 % 1020,1 hPa 0,0 l/m 0 min 0 min 57 W/m 9,7 km/h (2 Bft) 95,74 %
04.07.2019 20:32 23,1 C 21,1 C 21,1 C 50 % 1020,0 hPa 0,0 l/m 0 min 0 min 54 W/m 6,4 km/h (2 Bft) 97,83 %
04.07.2019 20:34 23,1 C 21,1 C 21,1 C 51 % 1020,0 hPa 0,0 l/m 0 min 0 min 51 W/m 3,2 km/h (1 Bft) 97,87 %
04.07.2019 20:36 22,9 C 21,1 C 21,1 C 51 % 1020,1 hPa 0,0 l/m 0 min 0 min 47 W/m 3,2 km/h (1 Bft) 97,87 %
04.07.2019 20:38 22,9 C 21,1 C 20,6 C 51 % 1020,0 hPa 0,0 l/m 0 min 0 min 45 W/m 3,2 km/h (1 Bft) 97,87 %
04.07.2019 20:40 22,9 C 20,6 C 20,6 C 52 % 1020,0 hPa 0,0 l/m 0 min 0 min 42 W/m 3,2 km/h (1 Bft) 97,87 %
04.07.2019 20:42 22,8 C 20,6 C 20,6 C 52 % 1020,0 hPa 0,0 l/m 0 min 0 min 40 W/m 3,2 km/h (1 Bft) 95,74 %
04.07.2019 20:44 22,8 C 20,6 C 20,6 C 52 % 1020,0 hPa 0,0 l/m 0 min 0 min 37 W/m 3,2 km/h (1 Bft) 97,83 %
04.07.2019 20:46 22,7 C 20,6 C 20,6 C 52 % 1020,1 hPa 0,0 l/m 0 min 0 min 36 W/m 3,2 km/h (1 Bft) 97,87 %
04.07.2019 20:48 22,7 C 20,0 C 20,0 C 54 % 1020,0 hPa 0,0 l/m 0 min 0 min 34 W/m 3,2 km/h (1 Bft) 97,87 %
04.07.2019 20:50 22,6 C 20,0 C 20,0 C 53 % 1020,0 hPa 0,0 l/m 0 min 0 min 33 W/m 0,0 km/h (0 Bft) 97,87 %
04.07.2019 20:52 22,6 C 20,0 C 20,0 C 53 % 1020,0 hPa 0,0 l/m 0 min 0 min 32 W/m 0,0 km/h (0 Bft) 97,87 %
04.07.2019 20:54 22,5 C 20,0 C 20,0 C 54 % 1020,0 hPa 0,0 l/m 0 min 0 min 31 W/m 3,2 km/h (1 Bft) 97,87 %
04.07.2019 20:56 22,4 C 20,0 C 20,0 C 54 % 1019,9 hPa 0,0 l/m 0 min 0 min 30 W/m 3,2 km/h (1 Bft) 97,83 %
04.07.2019 20:58 22,4 C 20,0 C 19,4 C 54 % 1019,9 hPa 0,0 l/m 0 min 0 min 30 W/m 0,0 km/h (0 Bft) 97,87 %
04.07.2019 21:00 22,3 C 20,0 C 19,4 C 54 % 1019,9 hPa 0,0 l/m 0 min 0 min 28 W/m 0,0 km/h (0 Bft) 97,87 %
04.07.2019 21:02 22,3 C 20,0 C 19,4 C 54 % 1019,9 hPa 0,0 l/m 0 min 0 min 28 W/m 0,0 km/h (0 Bft) 95,74 %
04.07.2019 21:04 22,2 C 19,4 C 19,4 C 55 % 1019,9 hPa 0,0 l/m 0 min 0 min 26 W/m 0,0 km/h (0 Bft) 97,87 %
04.07.2019 21:06 22,1 C 19,4 C 19,4 C 54 % 1019,9 hPa 0,0 l/m 0 min 0 min 26 W/m 3,2 km/h (1 Bft) 97,87 %
04.07.2019 21:08 22,1 C 19,4 C 19,4 C 54 % 1019,9 hPa 0,0 l/m 0 min 0 min 25 W/m 0,0 km/h (0 Bft) 100,00 %
04.07.2019 21:10 22,0 C 19,4 C 19,4 C 54 % 1019,9 hPa 0,0 l/m 0 min 0 min 23 W/m 3,2 km/h (1 Bft) 97,87 %
04.07.2019 21:12 21,9 C 19,4 C 19,4 C 55 % 1019,9 hPa 0,0 l/m 0 min 0 min 21 W/m 3,2 km/h (1 Bft) 100,00 %
04.07.2019 21:14 21,9 C 19,4 C 19,4 C 54 % 1019,8 hPa 0,0 l/m 0 min 0 min 19 W/m 3,2 km/h (1 Bft) 100,00 %
04.07.2019 21:16 21,8 C 19,4 C 19,4 C 54 % 1019,9 hPa 0,0 l/m 0 min 0 min 18 W/m 3,2 km/h (1 Bft) 97,87 %
04.07.2019 21:18 21,8 C 19,4 C 19,4 C 54 % 1019,8 hPa 0,0 l/m 0 min 0 min 18 W/m 3,2 km/h (1 Bft) 100,00 %
04.07.2019 21:20 21,7 C 19,4 C 18,9 C 55 % 1019,8 hPa 0,0 l/m 0 min 0 min 16 W/m 0,0 km/h (0 Bft) 100,00 %
04.07.2019 21:22 21,7 C 18,9 C 18,9 C 55 % 1019,8 hPa 0,0 l/m 0 min 0 min 16 W/m 0,0 km/h (0 Bft) 100,00 %
04.07.2019 21:24 21,6 C 18,9 C 18,9 C 55 % 1019,9 hPa 0,0 l/m 0 min 0 min 14 W/m 0,0 km/h (0 Bft) 97,83 %
04.07.2019 21:26 21,5 C 18,9 C 18,9 C 55 % 1019,8 hPa 0,0 l/m 0 min 0 min 14 W/m 0,0 km/h (0 Bft) 100,00 %
04.07.2019 21:28 21,5 C 18,9 C 18,9 C 56 % 1020,0 hPa 0,0 l/m 0 min 0 min 12 W/m 0,0 km/h (0 Bft) 100,00 %
04.07.2019 21:30 21,4 C 18,9 C 18,3 C 56 % 1019,9 hPa 0,0 l/m 0 min 0 min 11 W/m 3,2 km/h (1 Bft) 100,00 %
04.07.2019 21:32 21,3 C 18,9 C 18,3 C 56 % 1019,9 hPa 0,0 l/m 0 min 0 min 10 W/m 0,0 km/h (0 Bft) 97,87 %
04.07.2019 21:34 21,3 C 18,9 C 18,3 C 56 % 1019,9 hPa 0,0 l/m 0 min 0 min 8 W/m 0,0 km/h (0 Bft) 100,00 %
04.07.2019 21:36 21,2 C 18,9 C 18,3 C 56 % 1019,9 hPa 0,0 l/m 0 min 0 min 7 W/m 0,0 km/h (0 Bft) 97,83 %
04.07.2019 21:38 21,2 C 18,9 C 18,3 C 55 % 1019,9 hPa 0,0 l/m 0 min 0 min 6 W/m 0,0 km/h (0 Bft) 97,87 %
04.07.2019 21:40 21,1 C 18,3 C 17,8 C 56 % 1020,0 hPa 0,0 l/m 0 min 0 min 5 W/m 0,0 km/h (0 Bft) 97,87 %
04.07.2019 21:42 21,0 C 18,3 C 17,8 C 56 % 1020,0 hPa 0,0 l/m 0 min 0 min 5 W/m 0,0 km/h (0 Bft) 97,87 %
04.07.2019 21:44 21,0 C 18,3 C 17,8 C 56 % 1020,0 hPa 0,0 l/m 0 min 0 min 0 W/m 0,0 km/h (0 Bft) 100,00 %
04.07.2019 21:46 20,9 C 18,3 C 17,8 C 56 % 1020,0 hPa 0,0 l/m 0 min 0 min 0 W/m 0,0 km/h (0 Bft) 100,00 %
04.07.2019 21:48 20,9 C 18,3 C 17,8 C 56 % 1020,0 hPa 0,0 l/m 0 min 0 min 0 W/m 0,0 km/h (0 Bft) 100,00 %
04.07.2019 21:50 20,8 C 18,3 C 17,8 C 56 % 1020,0 hPa 0,0 l/m 0 min 0 min 0 W/m 0,0 km/h (0 Bft) 95,74 %
04.07.2019 21:52 20,7 C 18,3 C 17,8 C 56 % 1020,0 hPa 0,0 l/m 0 min 0 min 0 W/m 0,0 km/h (0 Bft) 97,87 %
04.07.2019 21:54 20,7 C 17,8 C 17,2 C 58 % 1020,1 hPa 0,0 l/m 0 min 0 min 0 W/m 0,0 km/h (0 Bft) 95,74 %
04.07.2019 21:56 20,6 C 17,8 C 17,2 C 57 % 1020,1 hPa 0,0 l/m 0 min 0 min 0 W/m 0,0 km/h (0 Bft) 95,74 %
04.07.2019 21:58 20,6 C 17,8 C 17,2 C 57 % 1020,0 hPa 0,0 l/m 0 min 0 min 0 W/m 0,0 km/h (0 Bft) 97,83 %
04.07.2019 22:00 20,4 C 17,8 C 17,2 C 57 % 1020,0 hPa 0,0 l/m 0 min 0 min 0 W/m 0,0 km/h (0 Bft) 93,62 %
04.07.2019 22:02 20,4 C 17,8 C 17,2 C 57 % 1020,0 hPa 0,0 l/m 0 min 0 min 0 W/m 0,0 km/h (0 Bft) 97,87 %
04.07.2019 22:04 20,3 C 17,8 C 17,2 C 57 % 1020,0 hPa 0,0 l/m 0 min 0 min 0 W/m 0,0 km/h (0 Bft) 97,87 %
04.07.2019 22:06 20,3 C 17,8 C 17,2 C 57 % 1020,0 hPa 0,0 l/m 0 min 0 min 0 W/m 0,0 km/h (0 Bft) 97,87 %
04.07.2019 22:08 20,2 C 17,8 C 17,2 C 57 % 1020,0 hPa 0,0 l/m 0 min 0 min 0 W/m 0,0 km/h (0 Bft) 95,74 %
04.07.2019 22:10 20,2 C 17,8 C 17,2 C 57 % 1020,0 hPa 0,0 l/m 0 min 0 min 0 W/m 0,0 km/h (0 Bft) 95,74 %
04.07.2019 22:12 20,2 C 17,8 C 17,2 C 57 % 1020,0 hPa 0,0 l/m 0 min 0 min 0 W/m 0,0 km/h (0 Bft) 95,65 %
04.07.2019 22:14 20,1 C 17,8 C 16,7 C 58 % 1020,0 hPa 0,0 l/m 0 min 0 min 0 W/m 0,0 km/h (0 Bft) 95,74 %
04.07.2019 22:16 20,1 C 17,2 C 16,7 C 58 % 1020,0 hPa 0,0 l/m 0 min 0 min 0 W/m 0,0 km/h (0 Bft) 95,74 %
04.07.2019 22:18 20,0 C 17,2 C 16,7 C 58 % 1020,0 hPa 0,0 l/m 0 min 0 min 0 W/m 0,0 km/h (0 Bft) 93,62 %
04.07.2019 22:20 19,9 C 17,2 C 16,7 C 58 % 1020,0 hPa 0,0 l/m 0 min 0 min 0 W/m 0,0 km/h (0 Bft) 95,74 %
04.07.2019 22:22 19,9 C 17,2 C 16,7 C 60 % 1020,0 hPa 0,0 l/m 0 min 0 min 0 W/m 0,0 km/h (0 Bft) 93,48 %
04.07.2019 22:24 19,8 C 17,2 C 16,7 C 59 % 1020,0 hPa 0,0 l/m 0 min 0 min 0 W/m 0,0 km/h (0 Bft) 95,74 %
04.07.2019 22:26 19,8 C 17,2 C 16,7 C 59 % 1020,0 hPa 0,0 l/m 0 min 0 min 0 W/m 0,0 km/h (0 Bft) 93,62 %
04.07.2019 22:28 19,7 C 17,2 C 16,7 C 59 % 1020,1 hPa 0,0 l/m 0 min 0 min 0 W/m 0,0 km/h (0 Bft) 95,74 %
04.07.2019 22:30 19,7 C 16,7 C 16,1 C 59 % 1020,1 hPa 0,0 l/m 0 min 0 min 0 W/m 0,0 km/h (0 Bft) 93,62 %
04.07.2019 22:32 19,6 C 16,7 C 16,1 C 59 % 1020,1 hPa 0,0 l/m 0 min 0 min 0 W/m 0,0 km/h (0 Bft) 91,49 %
04.07.2019 22:34 19,6 C 16,7 C 16,1 C 60 % 1020,1 hPa 0,0 l/m 0 min 0 min 0 W/m 0,0 km/h (0 Bft) 95,65 %
04.07.2019 22:36 19,5 C 16,7 C 16,1 C 60 % 1020,0 hPa 0,0 l/m 0 min 0 min 0 W/m 0,0 km/h (0 Bft) 95,74 %
04.07.2019 22:38 19,4 C 16,7 C 16,1 C 61 % 1020,0 hPa 0,0 l/m 0 min 0 min 0 W/m 0,0 km/h (0 Bft) 97,87 %
04.07.2019 22:40 19,4 C 16,7 C 16,1 C 60 % 1020,0 hPa 0,0 l/m 0 min 0 min 0 W/m 0,0 km/h (0 Bft) 97,87 %
04.07.2019 22:42 19,3 C 16,7 C 16,1 C 60 % 1020,0 hPa 0,0 l/m 0 min 0 min 0 W/m 0,0 km/h (0 Bft) 97,87 %
04.07.2019 22:44 19,3 C 16,7 C 16,1 C 61 % 1020,1 hPa 0,0 l/m 0 min 0 min 0 W/m 0,0 km/h (0 Bft) 97,87 %
04.07.2019 22:46 19,2 C 16,7 C 16,1 C 60 % 1020,1 hPa 0,0 l/m 0 min 0 min 0 W/m 0,0 km/h (0 Bft) 97,83 %
04.07.2019 22:48 19,2 C 16,7 C 16,1 C 60 % 1020,0 hPa 0,0 l/m 0 min 0 min 0 W/m 0,0 km/h (0 Bft) 97,87 %
04.07.2019 22:50 19,1 C 16,7 C 16,1 C 60 % 1020,1 hPa 0,0 l/m 0 min 0 min 0 W/m 0,0 km/h (0 Bft) 95,74 %
04.07.2019 22:52 19,1 C 16,7 C 16,1 C 60 % 1020,1 hPa 0,0 l/m 0 min 0 min 0 W/m 0,0 km/h (0 Bft) 95,74 %
04.07.2019 22:54 19,0 C 16,1 C 15,6 C 61 % 1020,1 hPa 0,0 l/m 0 min 0 min 0 W/m 0,0 km/h (0 Bft) 97,87 %
04.07.2019 22:56 18,9 C 16,1 C 15,6 C 61 % 1020,0 hPa 0,0 l/m 0 min 0 min 0 W/m 0,0 km/h (0 Bft) 97,83 %
04.07.2019 22:58 18,9 C 16,1 C 15,6 C 61 % 1020,0 hPa 0,0 l/m 0 min 0 min 0 W/m 0,0 km/h (0 Bft) 97,87 %
04.07.2019 23:00 18,9 C 16,1 C 15,6 C 62 % 1020,0 hPa 0,0 l/m 0 min 0 min 0 W/m 0,0 km/h (0 Bft) 97,87 %
04.07.2019 23:02 18,8 C 16,1 C 15,6 C 62 % 1020,0 hPa 0,0 l/m 0 min 0 min 0 W/m 0,0 km/h (0 Bft) 97,87 %
04.07.2019 23:04 18,7 C 16,1 C 15,6 C 63 % 1019,9 hPa 0,0 l/m 0 min 0 min 0 W/m 0,0 km/h (0 Bft) 97,87 %
04.07.2019 23:06 18,7 C 16,1 C 15,6 C 63 % 1019,9 hPa 0,0 l/m 0 min 0 min 0 W/m 0,0 km/h (0 Bft) 100,00 %
04.07.2019 23:08 18,7 C 16,1 C 15,6 C 62 % 1020,0 hPa 0,0 l/m 0 min 0 min 0 W/m 0,0 km/h (0 Bft) 100,00 %
04.07.2019 23:10 18,6 C 16,1 C 15,6 C 62 % 1020,0 hPa 0,0 l/m 0 min 0 min 0 W/m 0,0 km/h (0 Bft) 100,00 %
04.07.2019 23:12 18,6 C 15,6 C 15,0 C 62 % 1020,0 hPa 0,0 l/m 0 min 0 min 0 W/m 0,0 km/h (0 Bft) 97,87 %
04.07.2019 23:14 18,5 C 15,6 C 15,0 C 62 % 1020,0 hPa 0,0 l/m 0 min 0 min 0 W/m 0,0 km/h (0 Bft) 100,00 %
04.07.2019 23:16 18,4 C 15,6 C 15,0 C 63 % 1020,0 hPa 0,0 l/m 0 min 0 min 0 W/m 0,0 km/h (0 Bft) 100,00 %
04.07.2019 23:18 18,4 C 15,6 C 15,0 C 63 % 1019,9 hPa 0,0 l/m 0 min 0 min 0 W/m 3,2 km/h (1 Bft) 100,00 %
04.07.2019 23:20 18,3 C 15,6 C 15,0 C 63 % 1019,9 hPa 0,0 l/m 0 min 0 min 0 W/m 0,0 km/h (0 Bft) 100,00 %
04.07.2019 23:22 18,3 C 15,6 C 15,0 C 63 % 1019,9 hPa 0,0 l/m 0 min 0 min 0 W/m 3,2 km/h (1 Bft) 97,87 %
04.07.2019 23:24 18,2 C 15,6 C 15,0 C 63 % 1019,9 hPa 0,0 l/m 0 min 0 min 0 W/m 0,0 km/h (0 Bft) 100,00 %
04.07.2019 23:26 18,2 C 15,6 C 15,0 C 63 % 1020,0 hPa 0,0 l/m 0 min 0 min 0 W/m 0,0 km/h (0 Bft) 95,74 %
04.07.2019 23:28 18,1 C 16,1 C 15,0 C 63 % 1020,0 hPa 0,0 l/m 0 min 0 min 0 W/m 0,0 km/h (0 Bft) 100,00 %
04.07.2019 23:30 18,1 C 16,1 C 15,0 C 63 % 1020,0 hPa 0,0 l/m 0 min 0 min 0 W/m 0,0 km/h (0 Bft) 100,00 %
04.07.2019 23:32 18,1 C 16,1 C 15,0 C 63 % 1019,9 hPa 0,0 l/m 0 min 0 min 0 W/m 3,2 km/h (1 Bft) 97,83 %
04.07.2019 23:34 18,0 C 15,6 C 15,0 C 63 % 1020,0 hPa 0,0 l/m 0 min 0 min 0 W/m 3,2 km/h (1 Bft) 100,00 %
04.07.2019 23:36 17,9 C 16,1 C 15,0 C 63 % 1019,9 hPa 0,0 l/m 0 min 0 min 0 W/m 0,0 km/h (0 Bft) 100,00 %
04.07.2019 23:38 17,9 C 16,1 C 15,0 C 63 % 1020,0 hPa 0,0 l/m 0 min 0 min 0 W/m 0,0 km/h (0 Bft) 100,00 %
04.07.2019 23:40 17,9 C 16,1 C 15,0 C 63 % 1020,0 hPa 0,0 l/m 0 min 0 min 0 W/m 0,0 km/h (0 Bft) 100,00 %
04.07.2019 23:42 17,8 C 16,1 C 15,0 C 63 % 1020,0 hPa 0,0 l/m 0 min 0 min 0 W/m 0,0 km/h (0 Bft) 97,87 %
04.07.2019 23:44 17,8 C 16,1 C 15,0 C 63 % 1020,0 hPa 0,0 l/m 0 min 0 min 0 W/m 0,0 km/h (0 Bft) 100,00 %
04.07.2019 23:46 17,8 C 15,6 C 15,0 C 63 % 1020,0 hPa 0,0 l/m 0 min 0 min 0 W/m 0,0 km/h (0 Bft) 100,00 %
04.07.2019 23:48 17,7 C 15,6 C 15,0 C 63 % 1020,0 hPa 0,0 l/m 0 min 0 min 0 W/m 0,0 km/h (0 Bft) 100,00 %
04.07.2019 23:50 17,7 C 15,6 C 15,0 C 64 % 1020,1 hPa 0,0 l/m 0 min 0 min 0 W/m 0,0 km/h (0 Bft) 100,00 %
04.07.2019 23:52 17,7 C 15,6 C 15,6 C 64 % 1020,0 hPa 0,0 l/m 0 min 0 min 0 W/m 0,0 km/h (0 Bft) 100,00 %
04.07.2019 23:54 17,7 C 15,6 C 15,0 C 64 % 1019,9 hPa 0,0 l/m 0 min 0 min 0 W/m 3,2 km/h (1 Bft) 100,00 %
04.07.2019 23:56 17,6 C 15,6 C 15,6 C 65 % 1020,0 hPa 0,0 l/m 0 min 0 min 0 W/m 3,2 km/h (1 Bft) 97,83 %
04.07.2019 23:58 17,6 C 15,6 C 15,6 C 66 % 1020,0 hPa 0,0 l/m 0 min 0 min 0 W/m 0,0 km/h (0 Bft) 97,87 %
_ Min-Zeit 06:24 05:08 04:52 16:32 21:14 - - - - 02:18 07:36
Minimum _ 10,6 C 9,4 C 9,4 C 37 % 1019,8 hPa - - - - 0,0 km/h (0 Bft) 89,80 %
_ Max-Zeit 17:36 11:58 14:00 06:56 09:08 00:00 09:45 00:00 13:26 12:50 00:00
Maximum _ 27,0 C 31,7 C 35,6 C 86 % 1025,9 hPa 0,0 l/m 5 min 0 min 980 W/m 19,3 km/h
W-SW (3 Bft)
100,00 %
Durchschnitt _ 19,1 C 20,0 C 20,2 C 60 % 1023,6 hPa #0,0 l/m #10:22 h #0 min. 480 W/m 5,5 km/h (1 Bft) 97,71 %
© 2019 W. Hausmann